IBE0272 SBGR-LEMD
Flight info
| Callsign | IBE0272 |
|---|---|
| Flight time | 9h 45m |
| Altitude | 39000 |
| Route | NUXEL UZ23 ILPIR UZ72 EDNES UN866 TENPA N866 APASO N871 GDV N858 VASTO UN858 PESAS N858 PARKA Z165 SOTUK |
| Aircraft | A359/H-SDE2E3GHIJ1J3J4J5LM1ORWXY/LB1D1 |
Departure
| Time | 2026-05-07 22:12 |
|---|---|
| Airport | São Paulo/Guarulhos–Governor André Franco Montoro International Airport (SBGR) |
Arrival
| Time | 2026-05-08 07:57 |
|---|---|
| Airport | Adolfo Suárez Madrid–Barajas Airport (LEMD) |
| Time | Latitude | Longitude | Altitude | Speed | Heading |
|---|---|---|---|---|---|
| 2026-05-07 21:40 | -23.42455 | -46.47140 | 2473 ft | 0 kts | 74° |
| 2026-05-07 21:52 | -23.42455 | -46.47139 | 2473 ft | 0 kts | 74° |
| 2026-05-07 21:56 | -23.42455 | -46.47140 | 2473 ft | 0 kts | 74° |
| 2026-05-07 21:59 | -23.42456 | -46.47144 | 2473 ft | 2 kts | 74° |
| 2026-05-07 21:59 | -23.42460 | -46.47159 | 2473 ft | 2 kts | 74° |
| 2026-05-07 21:59 | -23.42464 | -46.47174 | 2473 ft | 2 kts | 74° |
| 2026-05-07 21:59 | -23.42468 | -46.47190 | 2473 ft | 2 kts | 77° |
| 2026-05-07 22:00 | -23.42469 | -46.47206 | 2473 ft | 2 kts | 99° |
| 2026-05-07 22:00 | -23.42465 | -46.47222 | 2473 ft | 2 kts | 116° |
| 2026-05-07 22:00 | -23.42457 | -46.47236 | 2473 ft | 2 kts | 133° |
| 2026-05-07 22:00 | -23.42446 | -46.47246 | 2473 ft | 2 kts | 150° |
| 2026-05-07 22:01 | -23.42435 | -46.47252 | 2473 ft | 0 kts | 163° |
| 2026-05-07 22:01 | -23.42432 | -46.47253 | 2473 ft | 0 kts | 164° |
| 2026-05-07 22:03 | -23.42435 | -46.47252 | 2473 ft | 2 kts | 164° |
| 2026-05-07 22:03 | -23.42465 | -46.47242 | 2473 ft | 4 kts | 164° |
| 2026-05-07 22:04 | -23.42502 | -46.47231 | 2473 ft | 8 kts | 164° |
| 2026-05-07 22:04 | -23.42554 | -46.47214 | 2473 ft | 7 kts | 161° |
| 2026-05-07 22:04 | -23.42603 | -46.47198 | 2473 ft | 7 kts | 163° |
| 2026-05-07 22:04 | -23.42656 | -46.47181 | 2473 ft | 8 kts | 163° |
| 2026-05-07 22:05 | -23.42711 | -46.47163 | 2473 ft | 7 kts | 164° |
| 2026-05-07 22:05 | -23.42743 | -46.47154 | 2473 ft | 4 kts | 165° |
| 2026-05-07 22:05 | -23.42774 | -46.47146 | 2473 ft | 4 kts | 165° |
| 2026-05-07 22:05 | -23.42806 | -46.47139 | 2473 ft | 4 kts | 178° |
| 2026-05-07 22:06 | -23.42828 | -46.47142 | 2473 ft | 2 kts | 201° |
| 2026-05-07 22:06 | -23.42854 | -46.47171 | 2473 ft | 11 kts | 242° |
| 2026-05-07 22:06 | -23.42882 | -46.47258 | 2473 ft | 12 kts | 252° |
| 2026-05-07 22:06 | -23.42908 | -46.47347 | 2473 ft | 12 kts | 253° |
| 2026-05-07 22:07 | -23.42933 | -46.47435 | 2473 ft | 12 kts | 252° |
| 2026-05-07 22:07 | -23.42955 | -46.47520 | 2473 ft | 11 kts | 255° |
| 2026-05-07 22:07 | -23.42976 | -46.47604 | 2473 ft | 11 kts | 255° |
| 2026-05-07 22:07 | -23.42997 | -46.47688 | 2473 ft | 11 kts | 255° |
| 2026-05-07 22:08 | -23.43019 | -46.47769 | 2473 ft | 11 kts | 252° |
| 2026-05-07 22:08 | -23.43044 | -46.47860 | 2473 ft | 14 kts | 253° |
| 2026-05-07 22:08 | -23.43071 | -46.47961 | 2473 ft | 14 kts | 253° |
| 2026-05-07 22:08 | -23.43098 | -46.48063 | 2473 ft | 13 kts | 253° |
| 2026-05-07 22:09 | -23.43126 | -46.48163 | 2473 ft | 13 kts | 253° |
| 2026-05-07 22:09 | -23.43152 | -46.48262 | 2473 ft | 13 kts | 253° |
| 2026-05-07 22:09 | -23.43183 | -46.48358 | 2473 ft | 12 kts | 235° |
| 2026-05-07 22:09 | -23.43243 | -46.48386 | 2473 ft | 8 kts | 168° |
| 2026-05-07 22:10 | -23.43295 | -46.48370 | 2473 ft | 7 kts | 163° |
| 2026-05-07 22:10 | -23.43347 | -46.48354 | 2473 ft | 7 kts | 163° |
| 2026-05-07 22:10 | -23.43399 | -46.48331 | 2473 ft | 7 kts | 144° |
| 2026-05-07 22:10 | -23.43414 | -46.48282 | 2473 ft | 7 kts | 82° |
| 2026-05-07 22:11 | -23.43390 | -46.48187 | 2473 ft | 33 kts | 73° |
| 2026-05-07 22:11 | -23.43255 | -46.47686 | 2473 ft | 102 kts | 73° |
| 2026-05-07 22:11 | -23.42992 | -46.46711 | 2474 ft | 162 kts | 73° |
| 2026-05-07 22:11 | -23.42633 | -46.45397 | 2663 ft | 193 kts | 72° |
| 2026-05-07 22:12 | -23.42248 | -46.43997 | 3427 ft | 193 kts | 71° |
| 2026-05-07 22:12 | -23.41845 | -46.42627 | 4202 ft | 192 kts | 70° |
| 2026-05-07 22:12 | -23.41434 | -46.41241 | 4667 ft | 198 kts | 70° |
| 2026-05-07 22:12 | -23.41001 | -46.39766 | 4917 ft | 210 kts | 70° |
| 2026-05-07 22:13 | -23.40546 | -46.38199 | 5168 ft | 222 kts | 70° |
| 2026-05-07 22:13 | -23.39781 | -46.36708 | 5419 ft | 233 kts | 41° |
| 2026-05-07 22:13 | -23.38454 | -46.35608 | 5740 ft | 246 kts | 32° |
| 2026-05-07 22:13 | -23.36978 | -46.34582 | 6040 ft | 260 kts | 31° |
| 2026-05-07 22:14 | -23.35422 | -46.33487 | 6412 ft | 271 kts | 32° |
| 2026-05-07 22:14 | -23.33842 | -46.32336 | 6978 ft | 275 kts | 33° |
| 2026-05-07 22:14 | -23.32269 | -46.31164 | 7579 ft | 277 kts | 33° |
| 2026-05-07 22:14 | -23.30666 | -46.29951 | 8174 ft | 280 kts | 33° |
| 2026-05-07 22:15 | -23.29069 | -46.28733 | 8755 ft | 282 kts | 33° |
| 2026-05-07 22:15 | -23.27463 | -46.27503 | 9326 ft | 285 kts | 33° |
| 2026-05-07 22:15 | -23.25850 | -46.26263 | 9888 ft | 288 kts | 33° |
| 2026-05-07 22:15 | -23.24213 | -46.25005 | 10400 ft | 292 kts | 33° |
| 2026-05-07 22:16 | -23.22519 | -46.23703 | 10673 ft | 306 kts | 33° |
| 2026-05-07 22:16 | -23.20755 | -46.22348 | 10939 ft | 319 kts | 33° |
| 2026-05-07 22:16 | -23.18891 | -46.20914 | 11205 ft | 332 kts | 33° |
| 2026-05-07 22:16 | -23.16978 | -46.19442 | 11461 ft | 345 kts | 33° |
| 2026-05-07 22:17 | -23.14995 | -46.17916 | 11712 ft | 358 kts | 33° |
| 2026-05-07 22:17 | -23.12890 | -46.16298 | 11963 ft | 371 kts | 33° |
| 2026-05-07 22:17 | -23.10759 | -46.14658 | 12201 ft | 383 kts | 33° |
| 2026-05-07 22:17 | -23.08550 | -46.12960 | 12534 ft | 392 kts | 33° |
| 2026-05-07 22:18 | -23.06331 | -46.11254 | 13037 ft | 395 kts | 33° |
| 2026-05-07 22:18 | -23.01808 | -46.07780 | 14077 ft | 401 kts | 33° |
| 2026-05-07 22:18 | -22.99535 | -46.06041 | 14463 ft | 407 kts | 33° |
| 2026-05-07 22:19 | -22.97208 | -46.04263 | 14831 ft | 414 kts | 34° |
| 2026-05-07 22:19 | -22.94841 | -46.02452 | 15233 ft | 419 kts | 34° |
| 2026-05-07 22:19 | -22.92426 | -46.00602 | 15675 ft | 423 kts | 35° |
| 2026-05-07 22:19 | -22.89967 | -45.98907 | 16147 ft | 425 kts | 28° |
| 2026-05-07 22:20 | -22.87282 | -45.97554 | 16641 ft | 427 kts | 21° |
| 2026-05-07 22:20 | -22.84421 | -45.96586 | 17116 ft | 429 kts | 14° |
| 2026-05-07 22:20 | -22.81533 | -45.95823 | 17557 ft | 432 kts | 13° |
| 2026-05-07 22:20 | -22.78610 | -45.95092 | 17972 ft | 435 kts | 13° |
| 2026-05-07 22:21 | -22.75654 | -45.94353 | 18386 ft | 438 kts | 13° |
| 2026-05-07 22:21 | -22.72700 | -45.93608 | 18797 ft | 441 kts | 13° |
| 2026-05-07 22:21 | -22.69683 | -45.92839 | 19203 ft | 443 kts | 13° |
| 2026-05-07 22:21 | -22.66675 | -45.92068 | 19596 ft | 446 kts | 13° |
| 2026-05-07 22:22 | -22.63685 | -45.91300 | 19977 ft | 449 kts | 13° |
| 2026-05-07 22:22 | -22.60632 | -45.90515 | 20361 ft | 452 kts | 13° |
| 2026-05-07 22:22 | -22.57585 | -45.89731 | 20737 ft | 454 kts | 13° |
| 2026-05-07 22:22 | -22.54505 | -45.88938 | 21109 ft | 457 kts | 13° |
| 2026-05-07 22:23 | -22.51394 | -45.88139 | 21476 ft | 459 kts | 12° |
| 2026-05-07 22:23 | -22.48276 | -45.87338 | 21837 ft | 461 kts | 12° |
| 2026-05-07 22:23 | -22.45145 | -45.86534 | 22190 ft | 464 kts | 12° |
| 2026-05-07 22:23 | -22.42028 | -45.85734 | 22537 ft | 466 kts | 12° |
| 2026-05-07 22:24 | -22.38863 | -45.84923 | 22883 ft | 468 kts | 12° |
| 2026-05-07 22:24 | -22.35680 | -45.84106 | 23223 ft | 471 kts | 12° |
| 2026-05-07 22:24 | -22.32509 | -45.83276 | 23547 ft | 473 kts | 14° |
| 2026-05-07 22:24 | -22.29365 | -45.82083 | 23860 ft | 476 kts | 23° |
| 2026-05-07 22:25 | -22.26429 | -45.80419 | 24165 ft | 479 kts | 31° |
| 2026-05-07 22:25 | -22.23710 | -45.78322 | 24468 ft | 482 kts | 37° |
| 2026-05-07 22:25 | -22.21103 | -45.76075 | 24766 ft | 484 kts | 38° |
| 2026-05-07 22:25 | -22.18504 | -45.73789 | 25043 ft | 486 kts | 38° |
| 2026-05-07 22:26 | -22.15884 | -45.71486 | 25315 ft | 488 kts | 38° |
| 2026-05-07 22:26 | -22.13230 | -45.69166 | 25584 ft | 490 kts | 38° |
| 2026-05-07 22:26 | -22.10564 | -45.66848 | 25848 ft | 492 kts | 38° |
| 2026-05-07 22:26 | -22.07882 | -45.64525 | 26104 ft | 493 kts | 38° |
| 2026-05-07 22:27 | -22.05211 | -45.62217 | 26351 ft | 495 kts | 38° |
| 2026-05-07 22:27 | -22.02529 | -45.59904 | 26590 ft | 497 kts | 38° |
| 2026-05-07 22:27 | -21.99819 | -45.57569 | 26861 ft | 497 kts | 38° |
| 2026-05-07 22:27 | -21.97117 | -45.55242 | 27204 ft | 496 kts | 38° |
| 2026-05-07 22:28 | -21.94422 | -45.52924 | 27554 ft | 495 kts | 37° |
| 2026-05-07 22:28 | -21.91719 | -45.50599 | 27888 ft | 494 kts | 37° |
| 2026-05-07 22:28 | -21.89042 | -45.48299 | 28201 ft | 493 kts | 37° |
| 2026-05-07 22:28 | -21.86352 | -45.46001 | 28504 ft | 492 kts | 37° |
| 2026-05-07 22:29 | -21.83677 | -45.43720 | 28802 ft | 491 kts | 37° |
| 2026-05-07 22:29 | -21.80994 | -45.41427 | 29097 ft | 491 kts | 37° |
| 2026-05-07 22:29 | -21.78318 | -45.39139 | 29387 ft | 490 kts | 37° |
| 2026-05-07 22:29 | -21.75680 | -45.36881 | 29665 ft | 489 kts | 37° |
| 2026-05-07 22:30 | -21.73014 | -45.34598 | 29940 ft | 488 kts | 37° |
| 2026-05-07 22:30 | -21.70360 | -45.32314 | 30201 ft | 487 kts | 37° |
| 2026-05-07 22:30 | -21.67696 | -45.30016 | 30457 ft | 486 kts | 37° |
| 2026-05-07 22:30 | -21.65052 | -45.27742 | 30704 ft | 485 kts | 36° |
| 2026-05-07 22:31 | -21.62436 | -45.25498 | 30941 ft | 485 kts | 36° |
| 2026-05-07 22:31 | -21.59800 | -45.23241 | 31174 ft | 484 kts | 36° |
| 2026-05-07 22:31 | -21.57179 | -45.21021 | 31536 ft | 479 kts | 38° |
| 2026-05-07 22:31 | -21.54607 | -45.18834 | 32105 ft | 470 kts | 38° |
| 2026-05-07 22:32 | -21.52055 | -45.16651 | 32517 ft | 464 kts | 38° |
| 2026-05-07 22:32 | -21.49528 | -45.14490 | 32739 ft | 463 kts | 38° |
| 2026-05-07 22:32 | -21.47015 | -45.12344 | 32885 ft | 463 kts | 38° |
| 2026-05-07 22:32 | -21.44489 | -45.10188 | 33026 ft | 464 kts | 38° |
| 2026-05-07 22:33 | -21.41966 | -45.08038 | 33179 ft | 464 kts | 38° |
| 2026-05-07 22:33 | -21.39464 | -45.05908 | 33337 ft | 463 kts | 38° |
| 2026-05-07 22:33 | -21.36931 | -45.03752 | 33496 ft | 463 kts | 38° |
| 2026-05-07 22:33 | -21.34407 | -45.01605 | 33649 ft | 463 kts | 38° |
| 2026-05-07 22:34 | -21.31884 | -44.99461 | 33797 ft | 462 kts | 38° |
| 2026-05-07 22:34 | -21.29389 | -44.97342 | 33939 ft | 462 kts | 38° |
| 2026-05-07 22:34 | -21.26885 | -44.95217 | 34077 ft | 462 kts | 38° |
| 2026-05-07 22:34 | -21.24364 | -44.93079 | 34211 ft | 461 kts | 38° |
| 2026-05-07 22:35 | -21.21837 | -44.90936 | 34343 ft | 461 kts | 38° |
| 2026-05-07 22:35 | -21.19337 | -44.88816 | 34469 ft | 461 kts | 38° |
| 2026-05-07 22:35 | -21.16837 | -44.86694 | 34592 ft | 461 kts | 38° |
| 2026-05-07 22:35 | -21.14340 | -44.84575 | 34710 ft | 460 kts | 38° |
| 2026-05-07 22:36 | -21.11832 | -44.82449 | 34826 ft | 460 kts | 38° |
| 2026-05-07 22:36 | -21.09328 | -44.80329 | 34938 ft | 460 kts | 38° |
| 2026-05-07 22:36 | -21.06822 | -44.78207 | 35047 ft | 460 kts | 38° |
| 2026-05-07 22:36 | -21.04287 | -44.76136 | 35150 ft | 460 kts | 36° |
| 2026-05-07 22:37 | -21.01696 | -44.74139 | 35252 ft | 459 kts | 36° |
| 2026-05-07 22:37 | -20.96519 | -44.70182 | 35444 ft | 459 kts | 36° |
| 2026-05-07 22:38 | -20.91305 | -44.66206 | 35625 ft | 459 kts | 36° |
| 2026-05-07 22:38 | -20.86351 | -44.62442 | 35786 ft | 458 kts | 35° |
| 2026-05-07 22:39 | -20.81156 | -44.58499 | 35945 ft | 458 kts | 36° |
| 2026-05-07 22:39 | -20.75981 | -44.54556 | 36093 ft | 458 kts | 36° |
| 2026-05-07 22:40 | -20.70814 | -44.50617 | 36226 ft | 457 kts | 36° |
| 2026-05-07 22:40 | -20.65629 | -44.46670 | 36344 ft | 457 kts | 36° |
| 2026-05-07 22:41 | -20.60471 | -44.42747 | 36457 ft | 457 kts | 36° |
| 2026-05-07 22:41 | -20.55306 | -44.38822 | 36562 ft | 457 kts | 36° |
| 2026-05-07 22:42 | -20.50151 | -44.34909 | 36659 ft | 457 kts | 35° |
| 2026-05-07 22:42 | -20.44976 | -44.30961 | 36750 ft | 457 kts | 35° |
| 2026-05-07 22:43 | -20.39864 | -44.26961 | 36834 ft | 457 kts | 37° |
| 2026-05-07 22:43 | -20.34769 | -44.22889 | 36914 ft | 457 kts | 37° |
| 2026-05-07 22:44 | -20.29691 | -44.18851 | 36989 ft | 457 kts | 36° |
| 2026-05-07 22:44 | -20.24626 | -44.14838 | 37054 ft | 457 kts | 36° |
| 2026-05-07 22:45 | -20.19483 | -44.10772 | 37107 ft | 458 kts | 36° |
| 2026-05-07 22:45 | -20.14452 | -44.06801 | 37156 ft | 458 kts | 36° |
| 2026-05-07 22:46 | -20.09306 | -44.02740 | 37203 ft | 458 kts | 36° |
| 2026-05-07 22:46 | -20.04186 | -43.98697 | 37248 ft | 459 kts | 36° |
| 2026-05-07 22:47 | -19.99070 | -43.94669 | 37290 ft | 459 kts | 36° |
| 2026-05-07 22:47 | -19.93935 | -43.90635 | 37329 ft | 459 kts | 36° |
| 2026-05-07 22:48 | -19.88779 | -43.86591 | 37366 ft | 459 kts | 36° |
| 2026-05-07 22:48 | -19.83598 | -43.82657 | 37398 ft | 460 kts | 34° |
| 2026-05-07 22:49 | -19.78299 | -43.78815 | 37434 ft | 460 kts | 34° |
| 2026-05-07 22:49 | -19.73035 | -43.75006 | 37465 ft | 460 kts | 34° |
| 2026-05-07 22:50 | -19.67764 | -43.71192 | 37495 ft | 460 kts | 34° |
| 2026-05-07 22:50 | -19.62493 | -43.67381 | 37523 ft | 460 kts | 34° |
| 2026-05-07 22:51 | -19.57197 | -43.63549 | 37564 ft | 460 kts | 34° |
| 2026-05-07 22:51 | -19.51912 | -43.59743 | 37574 ft | 461 kts | 34° |
| 2026-05-07 22:52 | -19.46631 | -43.55936 | 37595 ft | 461 kts | 34° |
| 2026-05-07 22:52 | -19.41335 | -43.52121 | 37619 ft | 461 kts | 34° |
| 2026-05-07 22:53 | -19.36044 | -43.48364 | 37639 ft | 461 kts | 32° |
| 2026-05-07 22:53 | -19.30440 | -43.45065 | 37650 ft | 461 kts | 26° |
| 2026-05-07 22:54 | -19.24529 | -43.42437 | 37673 ft | 461 kts | 19° |
| 2026-05-07 22:54 | -19.21515 | -43.41362 | 37799 ft | 458 kts | 18° |
| 2026-05-07 22:54 | -19.18500 | -43.40311 | 37925 ft | 455 kts | 18° |
| 2026-05-07 22:54 | -19.15489 | -43.39263 | 38052 ft | 452 kts | 18° |
| 2026-05-07 22:55 | -19.12533 | -43.38232 | 38177 ft | 449 kts | 18° |
| 2026-05-07 22:55 | -19.09539 | -43.37185 | 38304 ft | 446 kts | 18° |
| 2026-05-07 22:55 | -19.06621 | -43.36165 | 38429 ft | 443 kts | 18° |
| 2026-05-07 22:55 | -19.03723 | -43.35151 | 38554 ft | 440 kts | 18° |
| 2026-05-07 22:56 | -19.00847 | -43.34139 | 38679 ft | 437 kts | 18° |
| 2026-05-07 22:56 | -18.97983 | -43.33124 | 38804 ft | 433 kts | 18° |
| 2026-05-07 22:56 | -18.95120 | -43.32115 | 38930 ft | 430 kts | 18° |
| 2026-05-07 22:57 | -18.89492 | -43.30146 | 38981 ft | 428 kts | 18° |
| 2026-05-07 22:57 | -18.83832 | -43.28177 | 38986 ft | 427 kts | 18° |
| 2026-05-07 22:58 | -18.78238 | -43.26227 | 38987 ft | 425 kts | 18° |
| 2026-05-07 22:58 | -18.72623 | -43.24273 | 38988 ft | 424 kts | 18° |
| 2026-05-07 22:59 | -18.67057 | -43.22345 | 38988 ft | 423 kts | 17° |
| 2026-05-07 22:59 | -18.61459 | -43.20499 | 38988 ft | 422 kts | 17° |
| 2026-05-07 23:00 | -18.55885 | -43.18675 | 38988 ft | 421 kts | 17° |
| 2026-05-07 23:00 | -18.50306 | -43.16847 | 38987 ft | 420 kts | 17° |
| 2026-05-07 23:01 | -18.44779 | -43.15037 | 38987 ft | 418 kts | 17° |
| 2026-05-07 23:01 | -18.39240 | -43.13209 | 38986 ft | 417 kts | 19° |
| 2026-05-07 23:02 | -18.33804 | -43.11109 | 38988 ft | 415 kts | 20° |
| 2026-05-07 23:02 | -18.28403 | -43.08976 | 38988 ft | 414 kts | 20° |
| 2026-05-07 23:03 | -18.23038 | -43.06865 | 38987 ft | 412 kts | 20° |
| 2026-05-07 23:03 | -18.17687 | -43.04763 | 38987 ft | 411 kts | 20° |
| 2026-05-07 23:04 | -18.12350 | -43.02669 | 38987 ft | 409 kts | 20° |
| 2026-05-07 23:04 | -18.07044 | -43.00589 | 38987 ft | 408 kts | 20° |
| 2026-05-07 23:05 | -18.01741 | -42.98512 | 38987 ft | 406 kts | 20° |
| 2026-05-07 23:05 | -17.96485 | -42.96453 | 38987 ft | 405 kts | 20° |
| 2026-05-07 23:06 | -17.91245 | -42.94403 | 38987 ft | 403 kts | 20° |
| 2026-05-07 23:06 | -17.85972 | -42.92348 | 38987 ft | 401 kts | 20° |
| 2026-05-07 23:07 | -17.80777 | -42.90327 | 38987 ft | 399 kts | 20° |
| 2026-05-07 23:07 | -17.75609 | -42.88311 | 38987 ft | 397 kts | 20° |
| 2026-05-07 23:08 | -17.70440 | -42.86295 | 38987 ft | 396 kts | 20° |
| 2026-05-07 23:08 | -17.65302 | -42.84292 | 38987 ft | 394 kts | 20° |
| 2026-05-07 23:09 | -17.60181 | -42.82297 | 38987 ft | 392 kts | 20° |
| 2026-05-07 23:09 | -17.55109 | -42.80322 | 38987 ft | 390 kts | 20° |
| 2026-05-07 23:10 | -17.50064 | -42.78359 | 38987 ft | 387 kts | 20° |
| 2026-05-07 23:10 | -17.45026 | -42.76397 | 38987 ft | 385 kts | 20° |
| 2026-05-07 23:11 | -17.40028 | -42.74451 | 38987 ft | 383 kts | 20° |
| 2026-05-07 23:11 | -17.35081 | -42.72528 | 38987 ft | 381 kts | 20° |
| 2026-05-07 23:12 | -17.30116 | -42.70601 | 38987 ft | 378 kts | 20° |
| 2026-05-07 23:12 | -17.25235 | -42.68708 | 38987 ft | 376 kts | 20° |
| 2026-05-07 23:13 | -17.20359 | -42.66817 | 38987 ft | 373 kts | 20° |
| 2026-05-07 23:13 | -17.15498 | -42.64934 | 38987 ft | 370 kts | 20° |
| 2026-05-07 23:14 | -17.10682 | -42.63069 | 38774 ft | 374 kts | 20° |
| 2026-05-07 23:14 | -17.05827 | -42.61194 | 38702 ft | 374 kts | 20° |
| 2026-05-07 23:14 | -17.03356 | -42.60238 | 38548 ft | 378 kts | 20° |
| 2026-05-07 23:15 | -17.00894 | -42.59284 | 38401 ft | 382 kts | 20° |
| 2026-05-07 23:15 | -16.98382 | -42.58312 | 38252 ft | 386 kts | 20° |
| 2026-05-07 23:15 | -16.95848 | -42.57331 | 38104 ft | 390 kts | 20° |
| 2026-05-07 23:15 | -16.93319 | -42.56353 | 37957 ft | 394 kts | 20° |
| 2026-05-07 23:16 | -16.90736 | -42.55356 | 37810 ft | 398 kts | 20° |
| 2026-05-07 23:16 | -16.88097 | -42.54338 | 37660 ft | 403 kts | 20° |
| 2026-05-07 23:16 | -16.85444 | -42.53319 | 37512 ft | 408 kts | 20° |
| 2026-05-07 23:16 | -16.82772 | -42.52293 | 37364 ft | 413 kts | 20° |
| 2026-05-07 23:17 | -16.80076 | -42.51255 | 37217 ft | 418 kts | 20° |
| 2026-05-07 23:17 | -16.77332 | -42.50198 | 37068 ft | 423 kts | 20° |
| 2026-05-07 23:17 | -16.74568 | -42.49133 | 37003 ft | 426 kts | 20° |
| 2026-05-07 23:18 | -16.68974 | -42.46978 | 36992 ft | 430 kts | 20° |
| 2026-05-07 23:18 | -16.63361 | -42.44815 | 36990 ft | 433 kts | 20° |
| 2026-05-07 23:19 | -16.57709 | -42.42632 | 36990 ft | 436 kts | 20° |
| 2026-05-07 23:19 | -16.54819 | -42.41517 | 36795 ft | 443 kts | 20° |
| 2026-05-07 23:19 | -16.51876 | -42.40385 | 36519 ft | 452 kts | 20° |
| 2026-05-07 23:19 | -16.48916 | -42.39246 | 36246 ft | 460 kts | 20° |
| 2026-05-07 23:20 | -16.45892 | -42.38084 | 35969 ft | 467 kts | 20° |
| 2026-05-07 23:20 | -16.42854 | -42.36916 | 35694 ft | 469 kts | 20° |
| 2026-05-07 23:20 | -16.39777 | -42.35735 | 35417 ft | 470 kts | 20° |
| 2026-05-07 23:20 | -16.36698 | -42.34551 | 35140 ft | 471 kts | 20° |
| 2026-05-07 23:21 | -16.33634 | -42.33361 | 34926 ft | 471 kts | 20° |
| 2026-05-07 23:21 | -16.27510 | -42.30991 | 34893 ft | 472 kts | 20° |
| 2026-05-07 23:22 | -16.21340 | -42.28626 | 34890 ft | 472 kts | 20° |
| 2026-05-07 23:22 | -16.15257 | -42.26174 | 34888 ft | 472 kts | 24° |
| 2026-05-07 23:23 | -16.09333 | -42.23215 | 34889 ft | 472 kts | 26° |
| 2026-05-07 23:23 | -16.03476 | -42.20226 | 34889 ft | 472 kts | 26° |
| 2026-05-07 23:24 | -15.97593 | -42.17234 | 34889 ft | 472 kts | 26° |
| 2026-05-07 23:24 | -15.91732 | -42.14261 | 34889 ft | 472 kts | 26° |
| 2026-05-07 23:25 | -15.85825 | -42.11277 | 34889 ft | 472 kts | 26° |
| 2026-05-07 23:25 | -15.79946 | -42.08315 | 34889 ft | 472 kts | 26° |
| 2026-05-07 23:26 | -15.74038 | -42.05333 | 34889 ft | 472 kts | 26° |
| 2026-05-07 23:26 | -15.68136 | -42.02352 | 34889 ft | 472 kts | 26° |
| 2026-05-07 23:27 | -15.59314 | -41.97899 | 34889 ft | 472 kts | 26° |
| 2026-05-07 23:27 | -15.53443 | -41.94936 | 34889 ft | 472 kts | 26° |
| 2026-05-07 23:28 | -15.47561 | -41.91970 | 34889 ft | 472 kts | 26° |
| 2026-05-07 23:28 | -15.41679 | -41.89006 | 34889 ft | 472 kts | 26° |
| 2026-05-07 23:29 | -15.35799 | -41.86045 | 34889 ft | 472 kts | 26° |
| 2026-05-07 23:29 | -15.29892 | -41.83072 | 34889 ft | 472 kts | 26° |
| 2026-05-07 23:30 | -15.23996 | -41.80107 | 34889 ft | 472 kts | 26° |
| 2026-05-07 23:30 | -15.18144 | -41.77166 | 34889 ft | 472 kts | 26° |
| 2026-05-07 23:31 | -15.12270 | -41.74216 | 34889 ft | 472 kts | 26° |
| 2026-05-07 23:31 | -15.06356 | -41.71247 | 34889 ft | 472 kts | 26° |
| 2026-05-07 23:32 | -15.00502 | -41.68310 | 34889 ft | 472 kts | 26° |
| 2026-05-07 23:32 | -14.94612 | -41.65357 | 34889 ft | 472 kts | 26° |
| 2026-05-07 23:33 | -14.88706 | -41.62398 | 34889 ft | 472 kts | 26° |
| 2026-05-07 23:33 | -14.82850 | -41.59481 | 34889 ft | 472 kts | 26° |
| 2026-05-07 23:34 | -14.76964 | -41.56544 | 34889 ft | 472 kts | 26° |
| 2026-05-07 23:34 | -14.71071 | -41.53599 | 34889 ft | 472 kts | 26° |
| 2026-05-07 23:35 | -14.65169 | -41.50650 | 34889 ft | 472 kts | 26° |
| 2026-05-07 23:35 | -14.59306 | -41.47722 | 34889 ft | 472 kts | 26° |
| 2026-05-07 23:36 | -14.53412 | -41.44779 | 34889 ft | 472 kts | 26° |
| 2026-05-07 23:36 | -14.47547 | -41.41853 | 34889 ft | 472 kts | 26° |
| 2026-05-07 23:37 | -14.41648 | -41.38911 | 34889 ft | 472 kts | 26° |
| 2026-05-07 23:37 | -14.35766 | -41.35979 | 34889 ft | 472 kts | 26° |
| 2026-05-07 23:38 | -14.29875 | -41.33030 | 34889 ft | 472 kts | 26° |
| 2026-05-07 23:38 | -14.23986 | -41.30073 | 34889 ft | 472 kts | 26° |
| 2026-05-07 23:39 | -14.18126 | -41.27148 | 34889 ft | 472 kts | 26° |
| 2026-05-07 23:39 | -14.12233 | -41.24218 | 34889 ft | 472 kts | 25° |
| 2026-05-07 23:40 | -14.06325 | -41.21285 | 34889 ft | 472 kts | 25° |
| 2026-05-07 23:40 | -14.00452 | -41.18374 | 34889 ft | 472 kts | 25° |
| 2026-05-07 23:41 | -13.94553 | -41.15454 | 34889 ft | 472 kts | 25° |
| 2026-05-07 23:41 | -13.88665 | -41.12539 | 34889 ft | 472 kts | 25° |
| 2026-05-07 23:42 | -13.82789 | -41.09627 | 34889 ft | 472 kts | 26° |
| 2026-05-07 23:42 | -13.76871 | -41.06691 | 34889 ft | 472 kts | 26° |
| 2026-05-07 23:43 | -13.70977 | -41.03772 | 34889 ft | 472 kts | 26° |
| 2026-05-07 23:43 | -13.65103 | -41.00865 | 34889 ft | 472 kts | 26° |
| 2026-05-07 23:44 | -13.59232 | -40.97962 | 34889 ft | 472 kts | 26° |
| 2026-05-07 23:44 | -13.53310 | -40.95036 | 34889 ft | 472 kts | 26° |
| 2026-05-07 23:45 | -13.47433 | -40.92133 | 34889 ft | 472 kts | 26° |
| 2026-05-07 23:45 | -13.41526 | -40.89218 | 34889 ft | 472 kts | 26° |
| 2026-05-07 23:46 | -13.35662 | -40.86326 | 34889 ft | 472 kts | 26° |
| 2026-05-07 23:46 | -13.29752 | -40.83413 | 34889 ft | 472 kts | 26° |
| 2026-05-07 23:47 | -13.23852 | -40.80510 | 34889 ft | 472 kts | 25° |
| 2026-05-07 23:47 | -13.17982 | -40.77621 | 34889 ft | 472 kts | 26° |
| 2026-05-07 23:48 | -13.12054 | -40.74694 | 34889 ft | 472 kts | 26° |
| 2026-05-07 23:48 | -13.06142 | -40.71775 | 34889 ft | 472 kts | 26° |
| 2026-05-07 23:49 | -13.00257 | -40.68876 | 34889 ft | 472 kts | 26° |
| 2026-05-07 23:49 | -12.94343 | -40.65968 | 34889 ft | 472 kts | 26° |
| 2026-05-07 23:50 | -12.88444 | -40.63070 | 34889 ft | 472 kts | 25° |
| 2026-05-07 23:50 | -12.82542 | -40.60186 | 34889 ft | 472 kts | 25° |
| 2026-05-07 23:51 | -12.76624 | -40.57287 | 34889 ft | 472 kts | 26° |
| 2026-05-07 23:51 | -12.70725 | -40.54390 | 34889 ft | 472 kts | 26° |
| 2026-05-07 23:52 | -12.64827 | -40.51495 | 34889 ft | 472 kts | 26° |
| 2026-05-07 23:52 | -12.58922 | -40.48599 | 34889 ft | 472 kts | 26° |
| 2026-05-07 23:53 | -12.52990 | -40.45694 | 34889 ft | 472 kts | 26° |
| 2026-05-07 23:53 | -12.47092 | -40.42807 | 34889 ft | 472 kts | 26° |
| 2026-05-07 23:54 | -12.41163 | -40.39905 | 34889 ft | 472 kts | 26° |
| 2026-05-07 23:54 | -12.35266 | -40.37021 | 34889 ft | 472 kts | 26° |
| 2026-05-07 23:55 | -12.29370 | -40.34137 | 34889 ft | 472 kts | 25° |
| 2026-05-07 23:55 | -12.23461 | -40.31220 | 34889 ft | 472 kts | 25° |
| 2026-05-07 23:56 | -12.17554 | -40.28319 | 35102 ft | 472 kts | 25° |
| 2026-05-07 23:56 | -12.14644 | -40.26895 | 35255 ft | 471 kts | 25° |
| 2026-05-07 23:56 | -12.11670 | -40.25442 | 35394 ft | 470 kts | 25° |
| 2026-05-07 23:57 | -12.08738 | -40.24012 | 35515 ft | 470 kts | 25° |
| 2026-05-07 23:57 | -12.05810 | -40.22583 | 35627 ft | 470 kts | 25° |
| 2026-05-07 23:57 | -12.02865 | -40.21148 | 35736 ft | 470 kts | 25° |
| 2026-05-07 23:57 | -11.99913 | -40.19709 | 35842 ft | 469 kts | 25° |
| 2026-05-07 23:58 | -11.96993 | -40.18287 | 35944 ft | 469 kts | 25° |
| 2026-05-07 23:58 | -11.94072 | -40.16864 | 36043 ft | 469 kts | 25° |
| 2026-05-07 23:58 | -11.88206 | -40.14011 | 36231 ft | 469 kts | 25° |
| 2026-05-07 23:59 | -11.82327 | -40.11165 | 36396 ft | 469 kts | 25° |
| 2026-05-07 23:59 | -11.76460 | -40.08319 | 36549 ft | 469 kts | 25° |
| 2026-05-08 00:00 | -11.70596 | -40.05472 | 36692 ft | 469 kts | 25° |
| 2026-05-08 00:00 | -11.64730 | -40.02625 | 36826 ft | 469 kts | 25° |
| 2026-05-08 00:01 | -11.58872 | -39.99780 | 36952 ft | 469 kts | 25° |
| 2026-05-08 00:01 | -11.53035 | -39.96933 | 36985 ft | 469 kts | 25° |
| 2026-05-08 00:02 | -11.47144 | -39.94065 | 36989 ft | 472 kts | 25° |
| 2026-05-08 00:02 | -11.41206 | -39.91180 | 36989 ft | 474 kts | 25° |
| 2026-05-08 00:03 | -11.35276 | -39.88302 | 36989 ft | 477 kts | 25° |
| 2026-05-08 00:03 | -11.29288 | -39.85397 | 36989 ft | 479 kts | 25° |
| 2026-05-08 00:04 | -11.23298 | -39.82494 | 36989 ft | 481 kts | 25° |
| 2026-05-08 00:04 | -11.17258 | -39.79568 | 36989 ft | 483 kts | 25° |
| 2026-05-08 00:05 | -11.11214 | -39.76640 | 36989 ft | 484 kts | 25° |
| 2026-05-08 00:05 | -11.05141 | -39.73701 | 36989 ft | 484 kts | 25° |
| 2026-05-08 00:06 | -10.99116 | -39.70786 | 36989 ft | 484 kts | 25° |
| 2026-05-08 00:06 | -10.93056 | -39.67856 | 36989 ft | 484 kts | 25° |
| 2026-05-08 00:07 | -10.87000 | -39.64933 | 36989 ft | 484 kts | 25° |
| 2026-05-08 00:07 | -10.80949 | -39.62024 | 36989 ft | 484 kts | 25° |
| 2026-05-08 00:08 | -10.74891 | -39.59105 | 36989 ft | 484 kts | 25° |
| 2026-05-08 00:08 | -10.68839 | -39.56185 | 36989 ft | 484 kts | 25° |
| 2026-05-08 00:09 | -10.62754 | -39.53249 | 36989 ft | 484 kts | 25° |
| 2026-05-08 00:09 | -10.56727 | -39.50343 | 36989 ft | 484 kts | 25° |
| 2026-05-08 00:10 | -10.50664 | -39.47421 | 36989 ft | 484 kts | 25° |
| 2026-05-08 00:10 | -10.44623 | -39.44513 | 36989 ft | 484 kts | 25° |
| 2026-05-08 00:11 | -10.38550 | -39.41584 | 36989 ft | 484 kts | 25° |
| 2026-05-08 00:11 | -10.32514 | -39.38668 | 36989 ft | 484 kts | 25° |
| 2026-05-08 00:12 | -10.26438 | -39.35735 | 36989 ft | 484 kts | 25° |
| 2026-05-08 00:12 | -10.20406 | -39.32812 | 36989 ft | 484 kts | 25° |
| 2026-05-08 00:13 | -10.14341 | -39.29871 | 36989 ft | 484 kts | 25° |
| 2026-05-08 00:13 | -10.08290 | -39.26958 | 36989 ft | 484 kts | 25° |
| 2026-05-08 00:14 | -10.02261 | -39.24065 | 36989 ft | 484 kts | 25° |
| 2026-05-08 00:14 | -9.96181 | -39.21152 | 36989 ft | 484 kts | 25° |
| 2026-05-08 00:15 | -9.90117 | -39.18251 | 36989 ft | 484 kts | 25° |
| 2026-05-08 00:15 | -9.84060 | -39.15366 | 36989 ft | 483 kts | 25° |
| 2026-05-08 00:16 | -9.77951 | -39.12529 | 36989 ft | 483 kts | 24° |
| 2026-05-08 00:16 | -9.71880 | -39.09727 | 36989 ft | 483 kts | 24° |
| 2026-05-08 00:17 | -9.65786 | -39.06913 | 36989 ft | 483 kts | 24° |
| 2026-05-08 00:17 | -9.59654 | -39.04081 | 36989 ft | 483 kts | 24° |
| 2026-05-08 00:18 | -9.53565 | -39.01270 | 36989 ft | 483 kts | 24° |
| 2026-05-08 00:18 | -9.47476 | -38.98459 | 36989 ft | 483 kts | 24° |
| 2026-05-08 00:19 | -9.41372 | -38.95643 | 36989 ft | 483 kts | 24° |
| 2026-05-08 00:19 | -9.35296 | -38.92840 | 36989 ft | 483 kts | 24° |
| 2026-05-08 00:20 | -9.29180 | -38.90021 | 36989 ft | 483 kts | 24° |
| 2026-05-08 00:20 | -9.23089 | -38.87214 | 36989 ft | 483 kts | 24° |
| 2026-05-08 00:21 | -9.17004 | -38.84411 | 36989 ft | 483 kts | 24° |
| 2026-05-08 00:21 | -9.10887 | -38.81596 | 36989 ft | 484 kts | 24° |
| 2026-05-08 00:22 | -9.04805 | -38.78798 | 36989 ft | 484 kts | 24° |
| 2026-05-08 00:22 | -8.98711 | -38.75996 | 36989 ft | 484 kts | 24° |
| 2026-05-08 00:23 | -8.92619 | -38.73199 | 36989 ft | 484 kts | 24° |
| 2026-05-08 00:23 | -8.86508 | -38.70398 | 36989 ft | 484 kts | 24° |
| 2026-05-08 00:24 | -8.80415 | -38.67604 | 36989 ft | 484 kts | 24° |
| 2026-05-08 00:24 | -8.74283 | -38.64785 | 36989 ft | 484 kts | 24° |
| 2026-05-08 00:25 | -8.68189 | -38.61986 | 36989 ft | 484 kts | 24° |
| 2026-05-08 00:25 | -8.62110 | -38.59198 | 36989 ft | 484 kts | 24° |
| 2026-05-08 00:26 | -8.56015 | -38.56399 | 36989 ft | 484 kts | 24° |
| 2026-05-08 00:26 | -8.49908 | -38.53594 | 36989 ft | 484 kts | 24° |
| 2026-05-08 00:27 | -8.43789 | -38.50787 | 36989 ft | 484 kts | 24° |
| 2026-05-08 00:27 | -8.37697 | -38.47997 | 36989 ft | 484 kts | 24° |
| 2026-05-08 00:28 | -8.31594 | -38.45202 | 36989 ft | 484 kts | 24° |
| 2026-05-08 00:28 | -8.25499 | -38.42408 | 36989 ft | 484 kts | 24° |
| 2026-05-08 00:29 | -8.19396 | -38.39607 | 36989 ft | 484 kts | 24° |
| 2026-05-08 00:29 | -8.13283 | -38.36805 | 36989 ft | 484 kts | 24° |
| 2026-05-08 00:30 | -8.07190 | -38.34010 | 36989 ft | 484 kts | 24° |
| 2026-05-08 00:30 | -8.01100 | -38.31194 | 36989 ft | 484 kts | 24° |
| 2026-05-08 00:31 | -7.94997 | -38.28392 | 36989 ft | 484 kts | 24° |
| 2026-05-08 00:31 | -7.88867 | -38.25592 | 36989 ft | 484 kts | 24° |
| 2026-05-08 00:32 | -7.82796 | -38.22837 | 36989 ft | 484 kts | 24° |
| 2026-05-08 00:32 | -7.76680 | -38.20049 | 36989 ft | 484 kts | 24° |
| 2026-05-08 00:33 | -7.70569 | -38.17249 | 36989 ft | 484 kts | 24° |
| 2026-05-08 00:33 | -7.64465 | -38.14457 | 36989 ft | 484 kts | 24° |
| 2026-05-08 00:34 | -7.58365 | -38.11674 | 36989 ft | 484 kts | 24° |
| 2026-05-08 00:34 | -7.52253 | -38.08888 | 36989 ft | 483 kts | 24° |
| 2026-05-08 00:35 | -7.46154 | -38.06110 | 36989 ft | 483 kts | 24° |
| 2026-05-08 00:35 | -7.40040 | -38.03327 | 36989 ft | 483 kts | 24° |
| 2026-05-08 00:36 | -7.33932 | -38.00548 | 36989 ft | 483 kts | 24° |
| 2026-05-08 00:36 | -7.27861 | -37.97788 | 36989 ft | 483 kts | 24° |
| 2026-05-08 00:37 | -7.21727 | -37.95002 | 36989 ft | 483 kts | 24° |
| 2026-05-08 00:38 | -7.12569 | -37.90831 | 36989 ft | 483 kts | 24° |
| 2026-05-08 00:38 | -7.06494 | -37.88054 | 36989 ft | 483 kts | 24° |
| 2026-05-08 00:39 | -7.00366 | -37.85262 | 36989 ft | 483 kts | 24° |
| 2026-05-08 00:39 | -6.94295 | -37.82500 | 36989 ft | 483 kts | 24° |
| 2026-05-08 00:40 | -6.88169 | -37.79720 | 36989 ft | 483 kts | 24° |
| 2026-05-08 00:40 | -6.82078 | -37.76963 | 36989 ft | 483 kts | 24° |
| 2026-05-08 00:41 | -6.75934 | -37.74167 | 36989 ft | 483 kts | 24° |
| 2026-05-08 00:41 | -6.69862 | -37.71401 | 36989 ft | 483 kts | 24° |
| 2026-05-08 00:42 | -6.63730 | -37.68612 | 36989 ft | 483 kts | 24° |
| 2026-05-08 00:42 | -6.57652 | -37.65850 | 36989 ft | 483 kts | 24° |
| 2026-05-08 00:43 | -6.51545 | -37.63076 | 36989 ft | 483 kts | 24° |
| 2026-05-08 00:43 | -6.45447 | -37.60307 | 36989 ft | 483 kts | 24° |
| 2026-05-08 00:44 | -6.39320 | -37.57526 | 36989 ft | 484 kts | 24° |
| 2026-05-08 00:44 | -6.33219 | -37.54757 | 36989 ft | 484 kts | 24° |
| 2026-05-08 00:45 | -6.27109 | -37.51985 | 36989 ft | 484 kts | 24° |
| 2026-05-08 00:45 | -6.21013 | -37.49221 | 36989 ft | 484 kts | 24° |
| 2026-05-08 00:46 | -6.14897 | -37.46449 | 36989 ft | 484 kts | 24° |
| 2026-05-08 00:46 | -6.08797 | -37.43687 | 36989 ft | 484 kts | 24° |
| 2026-05-08 00:47 | -6.02699 | -37.40924 | 36989 ft | 484 kts | 24° |
| 2026-05-08 00:47 | -5.96568 | -37.38141 | 36989 ft | 484 kts | 24° |
| 2026-05-08 00:48 | -5.90476 | -37.35379 | 36989 ft | 484 kts | 24° |
| 2026-05-08 00:48 | -5.84359 | -37.32600 | 36989 ft | 484 kts | 24° |
| 2026-05-08 00:49 | -5.78242 | -37.29824 | 36989 ft | 484 kts | 24° |
| 2026-05-08 00:49 | -5.72162 | -37.27053 | 36989 ft | 484 kts | 24° |
| 2026-05-08 00:50 | -5.66065 | -37.24254 | 36989 ft | 484 kts | 24° |
| 2026-05-08 00:50 | -5.59951 | -37.21457 | 36989 ft | 484 kts | 24° |
| 2026-05-08 00:51 | -5.53857 | -37.18677 | 36989 ft | 484 kts | 24° |
| 2026-05-08 00:51 | -5.47751 | -37.15892 | 36989 ft | 484 kts | 24° |
| 2026-05-08 00:52 | -5.41685 | -37.13111 | 36989 ft | 484 kts | 24° |
| 2026-05-08 00:52 | -5.35590 | -37.10314 | 36989 ft | 484 kts | 24° |
| 2026-05-08 00:53 | -5.29467 | -37.07512 | 36989 ft | 484 kts | 24° |
| 2026-05-08 00:53 | -5.23386 | -37.04734 | 36989 ft | 484 kts | 24° |
| 2026-05-08 00:54 | -5.17274 | -37.01944 | 36989 ft | 484 kts | 24° |
| 2026-05-08 00:54 | -5.11169 | -36.99159 | 36989 ft | 484 kts | 24° |
| 2026-05-08 00:55 | -5.05083 | -36.96385 | 36989 ft | 484 kts | 24° |
| 2026-05-08 00:55 | -4.98980 | -36.93605 | 36989 ft | 484 kts | 24° |
| 2026-05-08 00:56 | -4.92898 | -36.90826 | 36989 ft | 484 kts | 24° |
| 2026-05-08 00:56 | -4.86801 | -36.88039 | 36989 ft | 484 kts | 24° |
| 2026-05-08 00:57 | -4.80659 | -36.85250 | 36989 ft | 483 kts | 24° |
| 2026-05-08 00:57 | -4.74587 | -36.82487 | 36989 ft | 483 kts | 24° |
| 2026-05-08 00:58 | -4.68493 | -36.79707 | 36989 ft | 483 kts | 24° |
| 2026-05-08 00:58 | -4.62399 | -36.76919 | 36989 ft | 483 kts | 24° |
| 2026-05-08 00:59 | -4.56273 | -36.74122 | 36989 ft | 483 kts | 24° |
| 2026-05-08 00:59 | -4.50215 | -36.71360 | 36989 ft | 483 kts | 24° |
| 2026-05-08 01:00 | -4.44088 | -36.68568 | 36989 ft | 483 kts | 24° |
| 2026-05-08 01:00 | -4.38010 | -36.65799 | 36989 ft | 483 kts | 24° |
| 2026-05-08 01:01 | -4.31923 | -36.63027 | 36989 ft | 483 kts | 24° |
| 2026-05-08 01:01 | -4.25831 | -36.60253 | 36989 ft | 483 kts | 24° |
| 2026-05-08 01:02 | -4.19742 | -36.57481 | 36989 ft | 483 kts | 24° |
| 2026-05-08 01:02 | -4.13636 | -36.54701 | 36989 ft | 483 kts | 24° |
| 2026-05-08 01:03 | -4.07519 | -36.51917 | 36989 ft | 483 kts | 24° |
| 2026-05-08 01:03 | -4.01440 | -36.49150 | 36989 ft | 483 kts | 24° |
| 2026-05-08 01:04 | -3.95357 | -36.46383 | 36989 ft | 483 kts | 24° |
| 2026-05-08 01:04 | -3.89250 | -36.43605 | 36989 ft | 483 kts | 24° |
| 2026-05-08 01:05 | -3.83144 | -36.40842 | 36989 ft | 483 kts | 24° |
| 2026-05-08 01:05 | -3.77039 | -36.38076 | 36989 ft | 483 kts | 24° |
| 2026-05-08 01:06 | -3.70968 | -36.35320 | 36989 ft | 483 kts | 24° |
| 2026-05-08 01:06 | -3.64841 | -36.32513 | 36989 ft | 483 kts | 25° |
| 2026-05-08 01:07 | -3.58778 | -36.29732 | 36989 ft | 483 kts | 24° |
| 2026-05-08 01:07 | -3.52661 | -36.26942 | 36989 ft | 483 kts | 24° |
| 2026-05-08 01:08 | -3.46600 | -36.24184 | 36989 ft | 483 kts | 24° |
| 2026-05-08 01:08 | -3.40478 | -36.21402 | 36989 ft | 483 kts | 24° |
| 2026-05-08 01:09 | -3.34402 | -36.18642 | 36989 ft | 483 kts | 24° |
| 2026-05-08 01:09 | -3.28300 | -36.15870 | 36989 ft | 483 kts | 24° |
| 2026-05-08 01:10 | -3.22211 | -36.13105 | 36989 ft | 483 kts | 24° |
| 2026-05-08 01:10 | -3.16112 | -36.10336 | 36989 ft | 483 kts | 24° |
| 2026-05-08 01:11 | -3.10011 | -36.07566 | 36989 ft | 483 kts | 24° |
| 2026-05-08 01:11 | -3.03906 | -36.04795 | 36989 ft | 483 kts | 24° |
| 2026-05-08 01:12 | -2.97815 | -36.02030 | 36989 ft | 483 kts | 24° |
| 2026-05-08 01:12 | -2.91684 | -35.99248 | 36989 ft | 483 kts | 24° |
| 2026-05-08 01:13 | -2.85615 | -35.96501 | 36989 ft | 483 kts | 24° |
| 2026-05-08 01:13 | -2.79500 | -35.93739 | 36989 ft | 483 kts | 24° |
| 2026-05-08 01:14 | -2.73400 | -35.90977 | 36989 ft | 483 kts | 24° |
| 2026-05-08 01:14 | -2.67317 | -35.88219 | 36989 ft | 483 kts | 24° |
| 2026-05-08 01:15 | -2.61190 | -35.85440 | 36989 ft | 483 kts | 24° |
| 2026-05-08 01:15 | -2.55112 | -35.82684 | 36989 ft | 483 kts | 24° |
| 2026-05-08 01:16 | -2.48998 | -35.79912 | 36989 ft | 483 kts | 24° |
| 2026-05-08 01:16 | -2.42900 | -35.77146 | 36989 ft | 483 kts | 24° |
| 2026-05-08 01:17 | -2.36818 | -35.74389 | 36989 ft | 483 kts | 24° |
| 2026-05-08 01:17 | -2.30719 | -35.71624 | 36989 ft | 483 kts | 24° |
| 2026-05-08 01:18 | -2.24626 | -35.68863 | 36989 ft | 483 kts | 24° |
| 2026-05-08 01:18 | -2.18539 | -35.66105 | 36989 ft | 483 kts | 24° |
| 2026-05-08 01:19 | -2.12429 | -35.63336 | 36989 ft | 483 kts | 24° |
| 2026-05-08 01:19 | -2.06353 | -35.60583 | 36989 ft | 483 kts | 24° |
| 2026-05-08 01:20 | -2.00232 | -35.57811 | 36989 ft | 483 kts | 24° |
| 2026-05-08 01:20 | -1.94163 | -35.55063 | 36989 ft | 483 kts | 24° |
| 2026-05-08 01:21 | -1.88055 | -35.52300 | 36989 ft | 483 kts | 24° |
| 2026-05-08 01:21 | -1.81973 | -35.49562 | 36989 ft | 483 kts | 24° |
| 2026-05-08 01:22 | -1.75845 | -35.46782 | 36988 ft | 483 kts | 25° |
| 2026-05-08 01:22 | -1.69915 | -35.43688 | 36990 ft | 483 kts | 28° |
| 2026-05-08 01:23 | -1.64088 | -35.40477 | 36989 ft | 483 kts | 29° |
| 2026-05-08 01:23 | -1.58194 | -35.37228 | 36989 ft | 483 kts | 29° |
| 2026-05-08 01:24 | -1.52344 | -35.34006 | 36989 ft | 483 kts | 29° |
| 2026-05-08 01:24 | -1.46512 | -35.30769 | 36989 ft | 483 kts | 29° |
| 2026-05-08 01:25 | -1.40629 | -35.27518 | 36989 ft | 483 kts | 29° |
| 2026-05-08 01:25 | -1.34780 | -35.24298 | 36989 ft | 483 kts | 28° |
| 2026-05-08 01:26 | -1.28920 | -35.21077 | 36989 ft | 483 kts | 28° |
| 2026-05-08 01:26 | -1.23057 | -35.17855 | 36989 ft | 483 kts | 28° |
| 2026-05-08 01:27 | -1.17188 | -35.14631 | 36989 ft | 483 kts | 28° |
| 2026-05-08 01:27 | -1.11320 | -35.11408 | 36989 ft | 483 kts | 28° |
| 2026-05-08 01:28 | -1.05457 | -35.08187 | 36989 ft | 483 kts | 28° |
| 2026-05-08 01:28 | -0.99591 | -35.04966 | 36989 ft | 483 kts | 28° |
| 2026-05-08 01:29 | -0.93723 | -35.01743 | 36989 ft | 483 kts | 28° |
| 2026-05-08 01:29 | -0.87861 | -34.98526 | 36989 ft | 483 kts | 28° |
| 2026-05-08 01:30 | -0.82007 | -34.95329 | 36989 ft | 483 kts | 28° |
| 2026-05-08 01:30 | -0.76120 | -34.92105 | 36989 ft | 483 kts | 28° |
| 2026-05-08 01:31 | -0.70265 | -34.88893 | 36989 ft | 483 kts | 28° |
| 2026-05-08 01:31 | -0.64397 | -34.85672 | 36989 ft | 483 kts | 28° |
| 2026-05-08 01:32 | -0.58537 | -34.82454 | 36989 ft | 483 kts | 28° |
| 2026-05-08 01:32 | -0.52675 | -34.79236 | 36989 ft | 483 kts | 28° |
| 2026-05-08 01:33 | -0.46825 | -34.76024 | 36989 ft | 483 kts | 28° |
| 2026-05-08 01:33 | -0.40939 | -34.72791 | 36989 ft | 483 kts | 28° |
| 2026-05-08 01:34 | -0.35093 | -34.69582 | 36989 ft | 483 kts | 28° |
| 2026-05-08 01:34 | -0.29202 | -34.66347 | 36989 ft | 483 kts | 28° |
| 2026-05-08 01:35 | -0.23354 | -34.63136 | 36989 ft | 483 kts | 28° |
| 2026-05-08 01:35 | -0.17473 | -34.59907 | 36989 ft | 483 kts | 28° |
| 2026-05-08 01:36 | -0.11615 | -34.56691 | 36989 ft | 483 kts | 28° |
| 2026-05-08 01:36 | -0.05756 | -34.53474 | 36989 ft | 483 kts | 28° |
| 2026-05-08 01:37 | 0.00109 | -34.50254 | 36989 ft | 483 kts | 28° |
| 2026-05-08 01:37 | 0.05976 | -34.47032 | 36989 ft | 483 kts | 28° |
| 2026-05-08 01:38 | 0.11841 | -34.43815 | 36989 ft | 483 kts | 28° |
| 2026-05-08 01:38 | 0.17700 | -34.40616 | 36989 ft | 483 kts | 28° |
| 2026-05-08 01:39 | 0.23588 | -34.37393 | 36989 ft | 484 kts | 28° |
| 2026-05-08 01:39 | 0.29460 | -34.34169 | 36989 ft | 484 kts | 29° |
| 2026-05-08 01:40 | 0.35332 | -34.30915 | 36989 ft | 484 kts | 29° |
| 2026-05-08 01:40 | 0.41200 | -34.27676 | 36989 ft | 484 kts | 29° |
| 2026-05-08 01:41 | 0.47086 | -34.24441 | 36989 ft | 484 kts | 28° |
| 2026-05-08 01:41 | 0.52941 | -34.21227 | 36989 ft | 484 kts | 28° |
| 2026-05-08 01:42 | 0.58797 | -34.18013 | 36989 ft | 484 kts | 28° |
| 2026-05-08 01:42 | 0.64681 | -34.14785 | 36989 ft | 484 kts | 28° |
| 2026-05-08 01:43 | 0.70570 | -34.11556 | 36989 ft | 484 kts | 28° |
| 2026-05-08 01:43 | 0.76448 | -34.08335 | 36989 ft | 484 kts | 28° |
| 2026-05-08 01:44 | 0.82324 | -34.05114 | 36989 ft | 484 kts | 28° |
| 2026-05-08 01:44 | 0.88166 | -34.01898 | 36989 ft | 484 kts | 29° |
| 2026-05-08 01:45 | 0.94050 | -33.98654 | 36989 ft | 484 kts | 29° |
| 2026-05-08 01:45 | 0.99910 | -33.95431 | 36989 ft | 484 kts | 28° |
| 2026-05-08 01:46 | 1.05816 | -33.92187 | 36989 ft | 484 kts | 28° |
| 2026-05-08 01:46 | 1.11667 | -33.88976 | 36989 ft | 484 kts | 28° |
| 2026-05-08 01:47 | 1.17548 | -33.85765 | 36989 ft | 484 kts | 28° |
| 2026-05-08 01:47 | 1.23448 | -33.82535 | 36989 ft | 484 kts | 28° |
| 2026-05-08 01:48 | 1.32250 | -33.77705 | 36989 ft | 483 kts | 28° |
| 2026-05-08 01:48 | 1.38126 | -33.74479 | 36989 ft | 483 kts | 28° |
| 2026-05-08 01:49 | 1.43995 | -33.71256 | 36989 ft | 483 kts | 28° |
| 2026-05-08 01:49 | 1.49837 | -33.68049 | 36989 ft | 483 kts | 28° |
| 2026-05-08 01:50 | 1.55727 | -33.64815 | 36989 ft | 483 kts | 28° |
| 2026-05-08 01:50 | 1.61592 | -33.61596 | 36989 ft | 483 kts | 28° |
| 2026-05-08 01:51 | 1.67436 | -33.58390 | 36989 ft | 483 kts | 28° |
| 2026-05-08 01:51 | 1.73314 | -33.55163 | 36989 ft | 483 kts | 28° |
| 2026-05-08 01:52 | 1.79193 | -33.51925 | 36989 ft | 483 kts | 29° |
| 2026-05-08 01:52 | 1.85064 | -33.48692 | 36989 ft | 483 kts | 28° |
| 2026-05-08 01:53 | 1.90902 | -33.45482 | 36989 ft | 483 kts | 28° |
| 2026-05-08 01:53 | 1.96788 | -33.42246 | 36989 ft | 483 kts | 28° |
| 2026-05-08 01:54 | 2.02630 | -33.39035 | 36989 ft | 483 kts | 28° |
| 2026-05-08 01:54 | 2.08511 | -33.35802 | 36989 ft | 483 kts | 28° |
| 2026-05-08 01:55 | 2.14360 | -33.32580 | 36989 ft | 483 kts | 29° |
| 2026-05-08 01:55 | 2.20249 | -33.29330 | 36989 ft | 483 kts | 29° |
| 2026-05-08 01:56 | 2.26102 | -33.26108 | 36989 ft | 483 kts | 28° |
| 2026-05-08 01:56 | 2.31962 | -33.22885 | 36989 ft | 483 kts | 28° |
| 2026-05-08 01:57 | 2.37825 | -33.19661 | 36989 ft | 483 kts | 28° |
| 2026-05-08 01:57 | 2.43689 | -33.16437 | 36989 ft | 483 kts | 28° |
| 2026-05-08 01:58 | 2.49583 | -33.13195 | 36989 ft | 483 kts | 28° |
| 2026-05-08 01:58 | 2.55453 | -33.09967 | 36989 ft | 483 kts | 28° |
| 2026-05-08 01:59 | 2.61322 | -33.06739 | 36989 ft | 483 kts | 28° |
| 2026-05-08 01:59 | 2.67169 | -33.03522 | 36989 ft | 483 kts | 28° |
| 2026-05-08 02:00 | 2.73047 | -33.00289 | 36989 ft | 483 kts | 28° |
| 2026-05-08 02:00 | 2.78916 | -32.97060 | 36989 ft | 483 kts | 28° |
| 2026-05-08 02:01 | 2.84783 | -32.93832 | 36989 ft | 483 kts | 28° |
| 2026-05-08 02:01 | 2.90654 | -32.90601 | 36989 ft | 483 kts | 28° |
| 2026-05-08 02:02 | 2.96522 | -32.87372 | 36989 ft | 483 kts | 28° |
| 2026-05-08 02:02 | 3.02387 | -32.84144 | 36989 ft | 483 kts | 28° |
| 2026-05-08 02:03 | 3.08247 | -32.80918 | 36989 ft | 483 kts | 28° |
| 2026-05-08 02:03 | 3.14118 | -32.77696 | 36989 ft | 483 kts | 28° |
| 2026-05-08 02:04 | 3.19984 | -32.74482 | 36989 ft | 483 kts | 28° |
| 2026-05-08 02:04 | 3.25872 | -32.71245 | 36989 ft | 483 kts | 28° |
| 2026-05-08 02:05 | 3.31727 | -32.68023 | 36989 ft | 483 kts | 28° |
| 2026-05-08 02:05 | 3.37589 | -32.64797 | 36989 ft | 483 kts | 28° |
| 2026-05-08 02:06 | 3.43453 | -32.61567 | 36989 ft | 483 kts | 29° |
| 2026-05-08 02:06 | 3.49337 | -32.58317 | 36989 ft | 483 kts | 29° |
| 2026-05-08 02:07 | 3.55191 | -32.55085 | 36989 ft | 483 kts | 29° |
| 2026-05-08 02:07 | 3.61044 | -32.51856 | 36989 ft | 483 kts | 29° |
| 2026-05-08 02:08 | 3.66937 | -32.48607 | 36989 ft | 483 kts | 28° |
| 2026-05-08 02:08 | 3.72794 | -32.45377 | 36989 ft | 483 kts | 28° |
| 2026-05-08 02:09 | 3.78657 | -32.42144 | 36989 ft | 483 kts | 28° |
| 2026-05-08 02:09 | 3.84523 | -32.38908 | 36989 ft | 483 kts | 28° |
| 2026-05-08 02:10 | 3.90379 | -32.35677 | 36989 ft | 483 kts | 28° |
| 2026-05-08 02:10 | 3.96244 | -32.32423 | 36989 ft | 483 kts | 29° |
| 2026-05-08 02:11 | 4.02093 | -32.29170 | 36989 ft | 483 kts | 29° |
| 2026-05-08 02:11 | 4.07984 | -32.25908 | 36989 ft | 483 kts | 29° |
| 2026-05-08 02:12 | 4.13826 | -32.22688 | 36989 ft | 483 kts | 28° |
| 2026-05-08 02:12 | 4.19696 | -32.19462 | 36989 ft | 483 kts | 28° |
| 2026-05-08 02:13 | 4.25572 | -32.16224 | 36989 ft | 483 kts | 29° |
| 2026-05-08 02:13 | 4.31468 | -32.12970 | 36989 ft | 483 kts | 29° |
| 2026-05-08 02:14 | 4.37313 | -32.09742 | 36989 ft | 483 kts | 29° |
| 2026-05-08 02:14 | 4.43195 | -32.06493 | 36989 ft | 483 kts | 29° |
| 2026-05-08 02:15 | 4.49036 | -32.03266 | 36989 ft | 483 kts | 29° |
| 2026-05-08 02:15 | 4.54920 | -32.00014 | 36989 ft | 483 kts | 29° |
| 2026-05-08 02:16 | 4.60768 | -31.96782 | 36989 ft | 483 kts | 29° |
| 2026-05-08 02:16 | 4.66655 | -31.93527 | 36989 ft | 483 kts | 29° |
| 2026-05-08 02:17 | 4.72490 | -31.90301 | 36989 ft | 483 kts | 29° |
| 2026-05-08 02:17 | 4.78377 | -31.87046 | 36989 ft | 483 kts | 29° |
| 2026-05-08 02:18 | 4.84230 | -31.83809 | 36989 ft | 483 kts | 29° |
| 2026-05-08 02:18 | 4.90121 | -31.80551 | 36989 ft | 483 kts | 29° |
| 2026-05-08 02:19 | 4.95993 | -31.77303 | 36989 ft | 483 kts | 29° |
| 2026-05-08 02:19 | 5.01833 | -31.74072 | 36989 ft | 483 kts | 29° |
| 2026-05-08 02:20 | 5.07719 | -31.70817 | 36989 ft | 483 kts | 29° |
| 2026-05-08 02:20 | 5.13562 | -31.67594 | 36989 ft | 483 kts | 28° |
| 2026-05-08 02:21 | 5.19455 | -31.64348 | 36989 ft | 483 kts | 29° |
| 2026-05-08 02:21 | 5.25305 | -31.61087 | 36989 ft | 483 kts | 29° |
| 2026-05-08 02:22 | 5.31144 | -31.57795 | 36989 ft | 483 kts | 29° |
| 2026-05-08 02:22 | 5.36998 | -31.54498 | 36989 ft | 484 kts | 29° |
| 2026-05-08 02:23 | 5.42847 | -31.51207 | 36989 ft | 484 kts | 29° |
| 2026-05-08 02:23 | 5.48660 | -31.47938 | 36989 ft | 484 kts | 29° |
| 2026-05-08 02:24 | 5.54510 | -31.44648 | 36989 ft | 484 kts | 29° |
| 2026-05-08 02:24 | 5.60374 | -31.41350 | 36989 ft | 484 kts | 29° |
| 2026-05-08 02:25 | 5.66212 | -31.38065 | 36989 ft | 484 kts | 29° |
| 2026-05-08 02:25 | 5.72057 | -31.34776 | 36989 ft | 484 kts | 29° |
| 2026-05-08 02:26 | 5.77874 | -31.31474 | 36989 ft | 484 kts | 29° |
| 2026-05-08 02:26 | 5.83726 | -31.28157 | 36989 ft | 484 kts | 29° |
| 2026-05-08 02:27 | 5.89561 | -31.24863 | 36989 ft | 484 kts | 29° |
| 2026-05-08 02:27 | 5.95418 | -31.21561 | 36989 ft | 484 kts | 29° |
| 2026-05-08 02:28 | 6.01265 | -31.18265 | 36989 ft | 484 kts | 29° |
| 2026-05-08 02:28 | 6.07107 | -31.14973 | 36989 ft | 484 kts | 29° |
| 2026-05-08 02:29 | 6.12950 | -31.11684 | 36989 ft | 484 kts | 29° |
| 2026-05-08 02:29 | 6.18797 | -31.08404 | 36989 ft | 484 kts | 29° |
| 2026-05-08 02:30 | 6.24656 | -31.05109 | 36989 ft | 484 kts | 29° |
| 2026-05-08 02:30 | 6.30481 | -31.01826 | 36989 ft | 484 kts | 29° |
| 2026-05-08 02:31 | 6.36313 | -30.98536 | 36989 ft | 484 kts | 29° |
| 2026-05-08 02:31 | 6.42186 | -30.95222 | 36989 ft | 484 kts | 29° |
| 2026-05-08 02:32 | 6.48031 | -30.91922 | 36989 ft | 484 kts | 29° |
| 2026-05-08 02:32 | 6.53870 | -30.88625 | 36989 ft | 484 kts | 29° |
| 2026-05-08 02:33 | 6.59709 | -30.85326 | 36989 ft | 484 kts | 29° |
| 2026-05-08 02:33 | 6.65534 | -30.82035 | 36989 ft | 484 kts | 29° |
| 2026-05-08 02:34 | 6.71397 | -30.78721 | 36989 ft | 484 kts | 29° |
| 2026-05-08 02:34 | 6.77235 | -30.75421 | 36989 ft | 484 kts | 29° |
| 2026-05-08 02:35 | 6.83073 | -30.72119 | 36989 ft | 484 kts | 29° |
| 2026-05-08 02:35 | 6.88896 | -30.68825 | 36989 ft | 484 kts | 29° |
| 2026-05-08 02:36 | 6.94778 | -30.65497 | 36989 ft | 484 kts | 29° |
| 2026-05-08 02:36 | 7.00615 | -30.62193 | 36989 ft | 484 kts | 29° |
| 2026-05-08 02:37 | 7.06457 | -30.58886 | 36989 ft | 484 kts | 29° |
| 2026-05-08 02:37 | 7.12292 | -30.55585 | 36989 ft | 484 kts | 29° |
| 2026-05-08 02:38 | 7.18121 | -30.52301 | 36989 ft | 484 kts | 29° |
| 2026-05-08 02:38 | 7.23981 | -30.48990 | 36989 ft | 484 kts | 29° |
| 2026-05-08 02:39 | 7.29838 | -30.45674 | 36989 ft | 484 kts | 29° |
| 2026-05-08 02:39 | 7.35656 | -30.42376 | 36989 ft | 484 kts | 29° |
| 2026-05-08 02:40 | 7.41485 | -30.39070 | 36989 ft | 484 kts | 29° |
| 2026-05-08 02:40 | 7.47355 | -30.35740 | 36989 ft | 484 kts | 29° |
| 2026-05-08 02:41 | 7.53167 | -30.32423 | 36989 ft | 483 kts | 30° |
| 2026-05-08 02:41 | 7.58982 | -30.29096 | 36989 ft | 483 kts | 30° |
| 2026-05-08 02:42 | 7.64820 | -30.25770 | 36989 ft | 483 kts | 29° |
| 2026-05-08 02:42 | 7.70639 | -30.22461 | 36989 ft | 483 kts | 29° |
| 2026-05-08 02:43 | 7.76474 | -30.19146 | 36989 ft | 483 kts | 29° |
| 2026-05-08 02:43 | 7.82299 | -30.15834 | 36989 ft | 483 kts | 29° |
| 2026-05-08 02:44 | 7.88161 | -30.12502 | 36989 ft | 483 kts | 29° |
| 2026-05-08 02:44 | 7.93976 | -30.09195 | 36989 ft | 483 kts | 29° |
| 2026-05-08 02:45 | 7.99805 | -30.05880 | 36989 ft | 483 kts | 29° |
| 2026-05-08 02:45 | 8.05635 | -30.02563 | 36989 ft | 483 kts | 29° |
| 2026-05-08 02:46 | 8.11473 | -29.99242 | 36989 ft | 483 kts | 29° |
| 2026-05-08 02:46 | 8.17325 | -29.95928 | 36989 ft | 483 kts | 29° |
| 2026-05-08 02:47 | 8.23153 | -29.92618 | 36989 ft | 483 kts | 29° |
| 2026-05-08 02:47 | 8.28994 | -29.89294 | 36989 ft | 483 kts | 29° |
| 2026-05-08 02:48 | 8.34805 | -29.85984 | 36989 ft | 483 kts | 29° |
| 2026-05-08 02:48 | 8.40655 | -29.82653 | 36989 ft | 483 kts | 29° |
| 2026-05-08 02:49 | 8.46462 | -29.79345 | 36989 ft | 483 kts | 29° |
| 2026-05-08 02:49 | 8.52296 | -29.76008 | 36989 ft | 483 kts | 30° |
| 2026-05-08 02:50 | 8.58131 | -29.72666 | 36989 ft | 483 kts | 29° |
| 2026-05-08 02:50 | 8.63945 | -29.69341 | 36989 ft | 483 kts | 29° |
| 2026-05-08 02:51 | 8.69802 | -29.65993 | 36989 ft | 483 kts | 29° |
| 2026-05-08 02:51 | 8.75598 | -29.62680 | 36989 ft | 483 kts | 29° |
| 2026-05-08 02:52 | 8.81447 | -29.59336 | 36989 ft | 483 kts | 29° |
| 2026-05-08 02:52 | 8.87255 | -29.56013 | 36989 ft | 483 kts | 29° |
| 2026-05-08 02:53 | 8.93095 | -29.52672 | 36989 ft | 483 kts | 29° |
| 2026-05-08 02:53 | 8.98917 | -29.49339 | 36989 ft | 483 kts | 29° |
| 2026-05-08 02:54 | 9.04771 | -29.45988 | 36989 ft | 483 kts | 29° |
| 2026-05-08 02:54 | 9.10576 | -29.42662 | 36989 ft | 483 kts | 29° |
| 2026-05-08 02:55 | 9.19313 | -29.37680 | 36989 ft | 483 kts | 29° |
| 2026-05-08 02:56 | 9.25178 | -29.34323 | 36989 ft | 483 kts | 30° |
| 2026-05-08 02:56 | 9.30989 | -29.30962 | 36989 ft | 483 kts | 30° |
| 2026-05-08 02:57 | 9.36795 | -29.27613 | 36989 ft | 483 kts | 30° |
| 2026-05-08 02:57 | 9.42596 | -29.24279 | 36989 ft | 483 kts | 30° |
| 2026-05-08 02:58 | 9.48430 | -29.20929 | 36989 ft | 483 kts | 30° |
| 2026-05-08 02:58 | 9.54247 | -29.17590 | 36989 ft | 483 kts | 30° |
| 2026-05-08 02:59 | 9.60103 | -29.14227 | 36989 ft | 483 kts | 30° |
| 2026-05-08 02:59 | 9.65917 | -29.10889 | 36989 ft | 483 kts | 29° |
| 2026-05-08 03:00 | 9.71755 | -29.07539 | 36989 ft | 483 kts | 29° |
| 2026-05-08 03:00 | 9.77586 | -29.04191 | 36989 ft | 483 kts | 30° |
| 2026-05-08 03:01 | 9.83386 | -29.00841 | 36989 ft | 483 kts | 30° |
| 2026-05-08 03:01 | 9.89191 | -28.97480 | 36989 ft | 483 kts | 30° |
| 2026-05-08 03:02 | 9.95031 | -28.94108 | 36989 ft | 483 kts | 30° |
| 2026-05-08 03:02 | 10.00851 | -28.90750 | 36989 ft | 483 kts | 30° |
| 2026-05-08 03:03 | 10.06663 | -28.87398 | 36989 ft | 483 kts | 30° |
| 2026-05-08 03:03 | 10.12480 | -28.84045 | 36989 ft | 483 kts | 29° |
| 2026-05-08 03:04 | 10.18334 | -28.80685 | 36989 ft | 483 kts | 29° |
| 2026-05-08 03:04 | 10.24168 | -28.77326 | 36989 ft | 483 kts | 30° |
| 2026-05-08 03:05 | 10.29978 | -28.73973 | 36989 ft | 483 kts | 30° |
| 2026-05-08 03:05 | 10.35787 | -28.70618 | 36989 ft | 483 kts | 30° |
| 2026-05-08 03:06 | 10.41635 | -28.67237 | 36989 ft | 483 kts | 30° |
| 2026-05-08 03:06 | 10.47442 | -28.63879 | 36989 ft | 483 kts | 30° |
| 2026-05-08 03:07 | 10.53246 | -28.60520 | 36989 ft | 483 kts | 30° |
| 2026-05-08 03:07 | 10.59091 | -28.57136 | 36989 ft | 483 kts | 30° |
| 2026-05-08 03:08 | 10.64888 | -28.53778 | 36989 ft | 483 kts | 30° |
| 2026-05-08 03:08 | 10.70731 | -28.50392 | 36989 ft | 483 kts | 30° |
| 2026-05-08 03:09 | 10.76547 | -28.47021 | 36989 ft | 483 kts | 30° |
| 2026-05-08 03:09 | 10.82356 | -28.43652 | 36989 ft | 483 kts | 30° |
| 2026-05-08 03:10 | 10.88164 | -28.40282 | 36989 ft | 483 kts | 30° |
| 2026-05-08 03:10 | 10.94010 | -28.36888 | 36989 ft | 483 kts | 30° |
| 2026-05-08 03:11 | 10.99791 | -28.33524 | 36989 ft | 483 kts | 30° |
| 2026-05-08 03:11 | 11.05604 | -28.30116 | 36989 ft | 483 kts | 30° |
| 2026-05-08 03:12 | 11.11408 | -28.26727 | 36989 ft | 483 kts | 30° |
| 2026-05-08 03:12 | 11.17237 | -28.23350 | 36989 ft | 483 kts | 30° |
| 2026-05-08 03:13 | 11.23062 | -28.19970 | 36989 ft | 483 kts | 30° |
| 2026-05-08 03:13 | 11.28892 | -28.16581 | 36989 ft | 483 kts | 30° |
| 2026-05-08 03:14 | 11.34697 | -28.13201 | 36989 ft | 483 kts | 30° |
| 2026-05-08 03:14 | 11.40524 | -28.09807 | 36989 ft | 483 kts | 30° |
| 2026-05-08 03:15 | 11.46344 | -28.06414 | 36989 ft | 483 kts | 30° |
| 2026-05-08 03:15 | 11.52162 | -28.03022 | 36989 ft | 483 kts | 30° |
| 2026-05-08 03:16 | 11.57944 | -27.99648 | 36989 ft | 483 kts | 30° |
| 2026-05-08 03:16 | 11.63771 | -27.96246 | 36989 ft | 483 kts | 30° |
| 2026-05-08 03:17 | 11.69591 | -27.92847 | 36989 ft | 483 kts | 30° |
| 2026-05-08 03:17 | 11.75416 | -27.89443 | 36989 ft | 483 kts | 30° |
| 2026-05-08 03:18 | 11.81204 | -27.86060 | 36989 ft | 483 kts | 30° |
| 2026-05-08 03:18 | 11.87031 | -27.82652 | 36989 ft | 483 kts | 30° |
| 2026-05-08 03:19 | 11.92851 | -27.79246 | 36989 ft | 483 kts | 30° |
| 2026-05-08 03:19 | 11.98662 | -27.75843 | 36989 ft | 483 kts | 30° |
| 2026-05-08 03:20 | 12.04480 | -27.72436 | 36989 ft | 483 kts | 30° |
| 2026-05-08 03:20 | 12.10290 | -27.69031 | 36989 ft | 484 kts | 30° |
| 2026-05-08 03:21 | 12.16087 | -27.65648 | 36989 ft | 484 kts | 30° |
| 2026-05-08 03:21 | 12.21924 | -27.62237 | 36989 ft | 484 kts | 30° |
| 2026-05-08 03:22 | 12.27729 | -27.58835 | 36989 ft | 484 kts | 30° |
| 2026-05-08 03:22 | 12.33529 | -27.55430 | 36989 ft | 484 kts | 30° |
| 2026-05-08 03:23 | 12.39335 | -27.52020 | 36989 ft | 484 kts | 30° |
| 2026-05-08 03:23 | 12.45177 | -27.48585 | 36989 ft | 484 kts | 30° |
| 2026-05-08 03:24 | 12.50950 | -27.45190 | 36989 ft | 484 kts | 30° |
| 2026-05-08 03:24 | 12.56788 | -27.41754 | 36989 ft | 484 kts | 30° |
| 2026-05-08 03:25 | 12.62583 | -27.38342 | 36989 ft | 484 kts | 30° |
| 2026-05-08 03:25 | 12.68381 | -27.34926 | 36989 ft | 484 kts | 30° |
| 2026-05-08 03:26 | 12.74124 | -27.31515 | 36989 ft | 484 kts | 30° |
| 2026-05-08 03:26 | 12.79902 | -27.28085 | 36989 ft | 484 kts | 30° |
| 2026-05-08 03:27 | 12.85735 | -27.24634 | 36989 ft | 484 kts | 30° |
| 2026-05-08 03:27 | 12.91506 | -27.21225 | 36989 ft | 484 kts | 30° |
| 2026-05-08 03:28 | 12.97323 | -27.17788 | 36989 ft | 484 kts | 30° |
| 2026-05-08 03:28 | 13.03146 | -27.14347 | 36989 ft | 484 kts | 30° |
| 2026-05-08 03:29 | 13.08949 | -27.10915 | 36989 ft | 484 kts | 30° |
| 2026-05-08 03:29 | 13.14754 | -27.07493 | 36989 ft | 484 kts | 30° |
| 2026-05-08 03:30 | 13.23485 | -27.02343 | 36989 ft | 484 kts | 30° |
| 2026-05-08 03:31 | 13.35071 | -26.95482 | 36989 ft | 484 kts | 30° |
| 2026-05-08 03:32 | 13.43788 | -26.90312 | 36989 ft | 484 kts | 30° |
| 2026-05-08 03:32 | 13.49570 | -26.86879 | 36989 ft | 484 kts | 30° |
| 2026-05-08 03:33 | 13.55397 | -26.83419 | 36989 ft | 484 kts | 30° |
| 2026-05-08 03:33 | 13.61190 | -26.79976 | 36989 ft | 484 kts | 30° |
| 2026-05-08 03:34 | 13.66987 | -26.76528 | 36989 ft | 484 kts | 30° |
| 2026-05-08 03:34 | 13.72796 | -26.73073 | 36989 ft | 484 kts | 30° |
| 2026-05-08 03:35 | 13.78576 | -26.69632 | 36989 ft | 484 kts | 30° |
| 2026-05-08 03:35 | 13.84392 | -26.66168 | 36989 ft | 484 kts | 30° |
| 2026-05-08 03:36 | 13.90211 | -26.62701 | 36989 ft | 484 kts | 30° |
| 2026-05-08 03:36 | 13.95988 | -26.59256 | 36989 ft | 484 kts | 30° |
| 2026-05-08 03:37 | 14.01776 | -26.55804 | 36989 ft | 484 kts | 30° |
| 2026-05-08 03:37 | 14.07595 | -26.52330 | 36989 ft | 484 kts | 30° |
| 2026-05-08 03:38 | 14.13389 | -26.48879 | 36989 ft | 484 kts | 30° |
| 2026-05-08 03:38 | 14.19191 | -26.45429 | 36989 ft | 484 kts | 30° |
| 2026-05-08 03:39 | 14.24985 | -26.41972 | 36989 ft | 484 kts | 30° |
| 2026-05-08 03:39 | 14.30796 | -26.38496 | 36989 ft | 484 kts | 30° |
| 2026-05-08 03:40 | 14.36611 | -26.35014 | 36989 ft | 484 kts | 30° |
| 2026-05-08 03:40 | 14.42363 | -26.31534 | 36989 ft | 483 kts | 30° |
| 2026-05-08 03:41 | 14.48158 | -26.28030 | 36989 ft | 483 kts | 30° |
| 2026-05-08 03:41 | 14.53931 | -26.24555 | 36989 ft | 483 kts | 30° |
| 2026-05-08 03:42 | 14.59736 | -26.21065 | 36989 ft | 483 kts | 30° |
| 2026-05-08 03:42 | 14.65525 | -26.17586 | 36989 ft | 483 kts | 30° |
| 2026-05-08 03:43 | 14.71312 | -26.14106 | 36989 ft | 483 kts | 30° |
| 2026-05-08 03:43 | 14.77087 | -26.10631 | 36989 ft | 483 kts | 30° |
| 2026-05-08 03:44 | 14.82899 | -26.07132 | 36989 ft | 483 kts | 30° |
| 2026-05-08 03:44 | 14.88668 | -26.03657 | 36989 ft | 483 kts | 30° |
| 2026-05-08 03:45 | 14.94442 | -26.00178 | 36989 ft | 483 kts | 30° |
| 2026-05-08 03:45 | 15.00257 | -25.96670 | 36989 ft | 483 kts | 30° |
| 2026-05-08 03:46 | 15.06033 | -25.93184 | 36989 ft | 483 kts | 30° |
| 2026-05-08 03:46 | 15.11824 | -25.89689 | 36989 ft | 483 kts | 30° |
| 2026-05-08 03:47 | 15.17610 | -25.86212 | 36989 ft | 483 kts | 30° |
| 2026-05-08 03:47 | 15.23420 | -25.82710 | 36989 ft | 483 kts | 30° |
| 2026-05-08 03:48 | 15.29193 | -25.79221 | 36989 ft | 483 kts | 30° |
| 2026-05-08 03:48 | 15.34976 | -25.75721 | 36989 ft | 483 kts | 30° |
| 2026-05-08 03:49 | 15.40744 | -25.72227 | 36989 ft | 483 kts | 30° |
| 2026-05-08 03:49 | 15.46533 | -25.68718 | 36989 ft | 483 kts | 30° |
| 2026-05-08 03:50 | 15.52310 | -25.65213 | 36989 ft | 483 kts | 30° |
| 2026-05-08 03:50 | 15.58100 | -25.61698 | 36989 ft | 483 kts | 30° |
| 2026-05-08 03:51 | 15.63895 | -25.58178 | 36989 ft | 483 kts | 30° |
| 2026-05-08 03:51 | 15.69656 | -25.54676 | 36989 ft | 483 kts | 30° |
| 2026-05-08 03:52 | 15.75434 | -25.51161 | 36989 ft | 484 kts | 30° |
| 2026-05-08 03:52 | 15.81212 | -25.47644 | 36989 ft | 484 kts | 30° |
| 2026-05-08 03:53 | 15.87001 | -25.44118 | 36989 ft | 484 kts | 30° |
| 2026-05-08 03:53 | 15.92801 | -25.40584 | 36989 ft | 484 kts | 30° |
| 2026-05-08 03:54 | 15.98561 | -25.37071 | 36989 ft | 484 kts | 30° |
| 2026-05-08 03:54 | 16.04355 | -25.33528 | 36989 ft | 484 kts | 31° |
| 2026-05-08 03:55 | 16.10111 | -25.29982 | 36989 ft | 484 kts | 31° |
| 2026-05-08 03:55 | 16.15882 | -25.26456 | 36989 ft | 484 kts | 30° |
| 2026-05-08 03:56 | 16.21647 | -25.22939 | 36989 ft | 484 kts | 30° |
| 2026-05-08 03:56 | 16.27447 | -25.19393 | 36989 ft | 484 kts | 30° |
| 2026-05-08 03:57 | 16.33214 | -25.15863 | 36989 ft | 484 kts | 30° |
| 2026-05-08 03:57 | 16.38982 | -25.12329 | 36989 ft | 484 kts | 30° |
| 2026-05-08 03:58 | 16.44750 | -25.08792 | 36989 ft | 484 kts | 30° |
| 2026-05-08 03:58 | 16.50529 | -25.05246 | 36989 ft | 484 kts | 30° |
| 2026-05-08 03:59 | 16.56294 | -25.01706 | 36989 ft | 484 kts | 30° |
| 2026-05-08 03:59 | 16.62100 | -24.98138 | 36989 ft | 484 kts | 30° |
| 2026-05-08 04:00 | 16.67863 | -24.94594 | 36989 ft | 484 kts | 30° |
| 2026-05-08 04:00 | 16.73642 | -24.91038 | 36989 ft | 484 kts | 30° |
| 2026-05-08 04:01 | 16.79396 | -24.87495 | 36989 ft | 484 kts | 30° |
| 2026-05-08 04:01 | 16.85181 | -24.83929 | 36989 ft | 484 kts | 30° |
| 2026-05-08 04:02 | 16.90925 | -24.80388 | 36989 ft | 484 kts | 30° |
| 2026-05-08 04:02 | 16.96709 | -24.76818 | 36989 ft | 484 kts | 30° |
| 2026-05-08 04:03 | 17.02480 | -24.73255 | 36989 ft | 484 kts | 30° |
| 2026-05-08 04:03 | 17.11123 | -24.67914 | 36989 ft | 484 kts | 30° |
| 2026-05-08 04:04 | 17.16893 | -24.64363 | 36989 ft | 484 kts | 30° |
| 2026-05-08 04:04 | 17.22699 | -24.60781 | 36989 ft | 484 kts | 30° |
| 2026-05-08 04:05 | 17.28430 | -24.57234 | 36989 ft | 484 kts | 30° |
| 2026-05-08 04:05 | 17.34207 | -24.53653 | 36989 ft | 484 kts | 30° |
| 2026-05-08 04:06 | 17.39976 | -24.50074 | 36989 ft | 484 kts | 30° |
| 2026-05-08 04:06 | 17.45764 | -24.46481 | 36989 ft | 484 kts | 30° |
| 2026-05-08 04:07 | 17.51520 | -24.42905 | 36989 ft | 484 kts | 30° |
| 2026-05-08 04:07 | 17.57284 | -24.39323 | 36989 ft | 484 kts | 30° |
| 2026-05-08 04:08 | 17.63039 | -24.35744 | 36989 ft | 483 kts | 30° |
| 2026-05-08 04:08 | 17.68781 | -24.32154 | 36989 ft | 483 kts | 31° |
| 2026-05-08 04:09 | 17.74519 | -24.28553 | 36989 ft | 483 kts | 31° |
| 2026-05-08 04:09 | 17.80303 | -24.24921 | 36989 ft | 483 kts | 31° |
| 2026-05-08 04:10 | 17.86019 | -24.21343 | 36989 ft | 483 kts | 31° |
| 2026-05-08 04:10 | 17.91787 | -24.17736 | 36989 ft | 483 kts | 31° |
| 2026-05-08 04:11 | 17.97553 | -24.14131 | 36989 ft | 483 kts | 31° |
| 2026-05-08 04:11 | 18.03321 | -24.10523 | 36989 ft | 483 kts | 31° |
| 2026-05-08 04:12 | 18.09041 | -24.06941 | 36989 ft | 483 kts | 31° |
| 2026-05-08 04:12 | 18.14797 | -24.03348 | 36989 ft | 483 kts | 31° |
| 2026-05-08 04:13 | 18.20565 | -23.99748 | 36989 ft | 483 kts | 31° |
| 2026-05-08 04:13 | 18.26352 | -23.96123 | 36989 ft | 483 kts | 31° |
| 2026-05-08 04:14 | 18.32099 | -23.92516 | 36989 ft | 483 kts | 31° |
| 2026-05-08 04:14 | 18.37842 | -23.88908 | 36989 ft | 483 kts | 31° |
| 2026-05-08 04:15 | 18.43580 | -23.85299 | 36989 ft | 483 kts | 31° |
| 2026-05-08 04:15 | 18.49353 | -23.81665 | 36989 ft | 483 kts | 31° |
| 2026-05-08 04:16 | 18.55076 | -23.78059 | 36989 ft | 483 kts | 31° |
| 2026-05-08 04:16 | 18.60834 | -23.74429 | 36989 ft | 483 kts | 31° |
| 2026-05-08 04:17 | 18.66599 | -23.70791 | 36989 ft | 483 kts | 31° |
| 2026-05-08 04:17 | 18.72353 | -23.67158 | 36989 ft | 483 kts | 31° |
| 2026-05-08 04:18 | 18.78088 | -23.63533 | 36989 ft | 483 kts | 31° |
| 2026-05-08 04:18 | 18.83819 | -23.59908 | 36989 ft | 483 kts | 31° |
| 2026-05-08 04:19 | 18.89559 | -23.56275 | 36989 ft | 483 kts | 31° |
| 2026-05-08 04:19 | 18.95336 | -23.52614 | 36989 ft | 483 kts | 31° |
| 2026-05-08 04:20 | 19.01059 | -23.48985 | 36989 ft | 483 kts | 31° |
| 2026-05-08 04:20 | 19.06791 | -23.45348 | 36989 ft | 483 kts | 31° |
| 2026-05-08 04:21 | 19.12539 | -23.41703 | 36989 ft | 483 kts | 31° |
| 2026-05-08 04:21 | 19.18292 | -23.38067 | 36989 ft | 483 kts | 31° |
| 2026-05-08 04:22 | 19.24031 | -23.34426 | 36989 ft | 483 kts | 31° |
| 2026-05-08 04:22 | 19.29796 | -23.30729 | 36989 ft | 483 kts | 31° |
| 2026-05-08 04:23 | 19.35507 | -23.27070 | 36989 ft | 483 kts | 31° |
| 2026-05-08 04:23 | 19.41265 | -23.23391 | 36989 ft | 483 kts | 31° |
| 2026-05-08 04:24 | 19.46993 | -23.19733 | 36989 ft | 483 kts | 31° |
| 2026-05-08 04:24 | 19.52705 | -23.16083 | 36989 ft | 484 kts | 31° |
| 2026-05-08 04:25 | 19.58440 | -23.12417 | 36989 ft | 484 kts | 31° |
| 2026-05-08 04:25 | 19.64206 | -23.08728 | 36989 ft | 484 kts | 31° |
| 2026-05-08 04:26 | 19.69919 | -23.05069 | 36989 ft | 484 kts | 31° |
| 2026-05-08 04:26 | 19.75675 | -23.01380 | 36989 ft | 484 kts | 31° |
| 2026-05-08 04:27 | 19.81404 | -22.97706 | 36989 ft | 484 kts | 31° |
| 2026-05-08 04:27 | 19.87137 | -22.94025 | 36989 ft | 484 kts | 31° |
| 2026-05-08 04:28 | 19.92869 | -22.90342 | 36989 ft | 484 kts | 31° |
| 2026-05-08 04:28 | 19.98609 | -22.86650 | 36989 ft | 484 kts | 31° |
| 2026-05-08 04:29 | 20.04354 | -22.82953 | 36989 ft | 484 kts | 31° |
| 2026-05-08 04:29 | 20.10074 | -22.79268 | 36989 ft | 484 kts | 31° |
| 2026-05-08 04:30 | 20.15823 | -22.75578 | 36989 ft | 484 kts | 31° |
| 2026-05-08 04:30 | 20.21556 | -22.71893 | 36989 ft | 484 kts | 31° |
| 2026-05-08 04:31 | 20.27262 | -22.68213 | 36989 ft | 484 kts | 31° |
| 2026-05-08 04:31 | 20.33015 | -22.64496 | 36989 ft | 484 kts | 31° |
| 2026-05-08 04:32 | 20.38717 | -22.60807 | 36989 ft | 484 kts | 31° |
| 2026-05-08 04:32 | 20.44462 | -22.57087 | 36989 ft | 484 kts | 31° |
| 2026-05-08 04:33 | 20.50205 | -22.53365 | 36989 ft | 484 kts | 31° |
| 2026-05-08 04:33 | 20.55916 | -22.49660 | 36989 ft | 484 kts | 31° |
| 2026-05-08 04:34 | 20.61644 | -22.45940 | 36989 ft | 484 kts | 31° |
| 2026-05-08 04:34 | 20.67360 | -22.42225 | 36989 ft | 484 kts | 31° |
| 2026-05-08 04:35 | 20.73075 | -22.38508 | 36989 ft | 484 kts | 31° |
| 2026-05-08 04:35 | 20.78819 | -22.34768 | 36989 ft | 484 kts | 31° |
| 2026-05-08 04:36 | 20.84508 | -22.31034 | 36989 ft | 484 kts | 32° |
| 2026-05-08 04:36 | 20.90236 | -22.27279 | 36989 ft | 484 kts | 31° |
| 2026-05-08 04:37 | 20.95965 | -22.23533 | 36989 ft | 484 kts | 31° |
| 2026-05-08 04:37 | 21.01678 | -22.19801 | 36989 ft | 484 kts | 31° |
| 2026-05-08 04:38 | 21.07387 | -22.16070 | 36989 ft | 484 kts | 31° |
| 2026-05-08 04:38 | 21.13101 | -22.12340 | 36989 ft | 484 kts | 31° |
| 2026-05-08 04:39 | 21.18849 | -22.08596 | 36989 ft | 484 kts | 31° |
| 2026-05-08 04:39 | 21.24547 | -22.04871 | 36989 ft | 484 kts | 31° |
| 2026-05-08 04:40 | 21.30298 | -22.01105 | 36989 ft | 484 kts | 31° |
| 2026-05-08 04:40 | 21.36002 | -21.97360 | 36989 ft | 484 kts | 31° |
| 2026-05-08 04:41 | 21.41727 | -21.93580 | 36989 ft | 484 kts | 31° |
| 2026-05-08 04:41 | 21.47416 | -21.89823 | 36989 ft | 484 kts | 31° |
| 2026-05-08 04:42 | 21.53138 | -21.86048 | 36989 ft | 483 kts | 31° |
| 2026-05-08 04:42 | 21.58823 | -21.82298 | 36989 ft | 483 kts | 31° |
| 2026-05-08 04:43 | 21.64549 | -21.78517 | 36989 ft | 483 kts | 31° |
| 2026-05-08 04:43 | 21.70233 | -21.74762 | 36989 ft | 483 kts | 31° |
| 2026-05-08 04:44 | 21.75953 | -21.70978 | 36989 ft | 483 kts | 31° |
| 2026-05-08 04:44 | 21.81647 | -21.67210 | 36989 ft | 483 kts | 31° |
| 2026-05-08 04:45 | 21.87371 | -21.63417 | 36989 ft | 483 kts | 31° |
| 2026-05-08 04:45 | 21.93052 | -21.59649 | 36989 ft | 483 kts | 31° |
| 2026-05-08 04:46 | 21.98766 | -21.55856 | 36989 ft | 483 kts | 31° |
| 2026-05-08 04:46 | 22.04450 | -21.52079 | 36989 ft | 483 kts | 31° |
| 2026-05-08 04:47 | 22.10170 | -21.48274 | 36989 ft | 483 kts | 31° |
| 2026-05-08 04:47 | 22.15866 | -21.44500 | 36989 ft | 483 kts | 31° |
| 2026-05-08 04:48 | 22.21556 | -21.40724 | 36989 ft | 483 kts | 31° |
| 2026-05-08 04:48 | 22.27246 | -21.36934 | 36989 ft | 483 kts | 31° |
| 2026-05-08 04:49 | 22.32962 | -21.33110 | 36989 ft | 483 kts | 32° |
| 2026-05-08 04:49 | 22.38636 | -21.29287 | 36989 ft | 483 kts | 32° |
| 2026-05-08 04:50 | 22.44314 | -21.25475 | 36989 ft | 483 kts | 32° |
| 2026-05-08 04:50 | 22.50022 | -21.21649 | 36989 ft | 483 kts | 32° |
| 2026-05-08 04:51 | 22.55698 | -21.17844 | 36989 ft | 483 kts | 32° |
| 2026-05-08 04:51 | 22.61377 | -21.14035 | 36989 ft | 483 kts | 32° |
| 2026-05-08 04:52 | 22.67089 | -21.10200 | 36989 ft | 483 kts | 32° |
| 2026-05-08 04:52 | 22.72763 | -21.06387 | 36989 ft | 483 kts | 32° |
| 2026-05-08 04:53 | 22.78441 | -21.02568 | 36989 ft | 483 kts | 32° |
| 2026-05-08 04:53 | 22.84149 | -20.98726 | 36989 ft | 483 kts | 32° |
| 2026-05-08 04:54 | 22.89847 | -20.94888 | 36989 ft | 483 kts | 32° |
| 2026-05-08 04:54 | 22.95510 | -20.91073 | 36989 ft | 483 kts | 32° |
| 2026-05-08 04:55 | 23.01215 | -20.87229 | 36989 ft | 483 kts | 32° |
| 2026-05-08 04:55 | 23.06873 | -20.83406 | 36989 ft | 483 kts | 32° |
| 2026-05-08 04:56 | 23.12559 | -20.79541 | 36989 ft | 483 kts | 32° |
| 2026-05-08 04:56 | 23.18252 | -20.75688 | 36989 ft | 483 kts | 32° |
| 2026-05-08 04:57 | 23.23920 | -20.71848 | 36989 ft | 483 kts | 32° |
| 2026-05-08 04:57 | 23.29630 | -20.67973 | 36989 ft | 483 kts | 32° |
| 2026-05-08 04:58 | 23.35287 | -20.64128 | 36989 ft | 483 kts | 32° |
| 2026-05-08 04:58 | 23.40974 | -20.60258 | 36989 ft | 483 kts | 32° |
| 2026-05-08 04:59 | 23.46655 | -20.56388 | 36989 ft | 483 kts | 32° |
| 2026-05-08 04:59 | 23.52304 | -20.52537 | 36989 ft | 483 kts | 32° |
| 2026-05-08 05:00 | 23.58011 | -20.48641 | 36989 ft | 483 kts | 32° |
| 2026-05-08 05:00 | 23.63657 | -20.44783 | 36989 ft | 483 kts | 32° |
| 2026-05-08 05:01 | 23.69340 | -20.40896 | 36989 ft | 483 kts | 32° |
| 2026-05-08 05:01 | 23.75021 | -20.37006 | 36989 ft | 483 kts | 32° |
| 2026-05-08 05:02 | 23.80676 | -20.33121 | 36989 ft | 483 kts | 32° |
| 2026-05-08 05:02 | 23.86347 | -20.29200 | 36989 ft | 483 kts | 32° |
| 2026-05-08 05:03 | 23.91985 | -20.25314 | 36989 ft | 483 kts | 32° |
| 2026-05-08 05:03 | 23.97672 | -20.21399 | 36989 ft | 483 kts | 32° |
| 2026-05-08 05:04 | 24.03331 | -20.17503 | 36989 ft | 483 kts | 32° |
| 2026-05-08 05:04 | 24.08996 | -20.13600 | 36989 ft | 483 kts | 32° |
| 2026-05-08 05:05 | 24.14659 | -20.09708 | 36989 ft | 483 kts | 32° |
| 2026-05-08 05:05 | 24.20353 | -20.05795 | 36989 ft | 483 kts | 32° |
| 2026-05-08 05:06 | 24.25996 | -20.01901 | 36989 ft | 483 kts | 32° |
| 2026-05-08 05:06 | 24.31683 | -19.97969 | 36989 ft | 483 kts | 32° |
| 2026-05-08 05:07 | 24.37358 | -19.94039 | 36989 ft | 483 kts | 32° |
| 2026-05-08 05:07 | 24.42994 | -19.90132 | 36989 ft | 483 kts | 32° |
| 2026-05-08 05:08 | 24.48669 | -19.86192 | 36989 ft | 483 kts | 32° |
| 2026-05-08 05:08 | 24.54302 | -19.82279 | 36989 ft | 483 kts | 32° |
| 2026-05-08 05:09 | 24.59987 | -19.78325 | 36989 ft | 483 kts | 32° |
| 2026-05-08 05:09 | 24.65632 | -19.74396 | 36989 ft | 483 kts | 32° |
| 2026-05-08 05:10 | 24.74116 | -19.68484 | 36989 ft | 483 kts | 32° |
| 2026-05-08 05:11 | 24.79793 | -19.64524 | 36989 ft | 483 kts | 32° |
| 2026-05-08 05:11 | 24.85428 | -19.60593 | 36989 ft | 483 kts | 32° |
| 2026-05-08 05:12 | 24.91087 | -19.56637 | 36989 ft | 483 kts | 32° |
| 2026-05-08 05:12 | 24.96594 | -19.52475 | 36989 ft | 483 kts | 37° |
| 2026-05-08 05:13 | 25.01714 | -19.47681 | 36989 ft | 483 kts | 43° |
| 2026-05-08 05:13 | 25.06345 | -19.42328 | 36989 ft | 483 kts | 48° |
| 2026-05-08 05:14 | 25.10719 | -19.36759 | 36989 ft | 483 kts | 49° |
| 2026-05-08 05:14 | 25.15098 | -19.31189 | 36989 ft | 483 kts | 49° |
| 2026-05-08 05:15 | 25.19487 | -19.25592 | 36989 ft | 483 kts | 49° |
| 2026-05-08 05:15 | 25.23890 | -19.19977 | 36989 ft | 483 kts | 49° |
| 2026-05-08 05:16 | 25.28256 | -19.14409 | 36989 ft | 483 kts | 49° |
| 2026-05-08 05:16 | 25.32641 | -19.08812 | 36989 ft | 483 kts | 49° |
| 2026-05-08 05:17 | 25.37023 | -19.03212 | 36989 ft | 483 kts | 49° |
| 2026-05-08 05:17 | 25.41421 | -18.97584 | 36989 ft | 483 kts | 49° |
| 2026-05-08 05:18 | 25.45805 | -18.91970 | 36989 ft | 483 kts | 49° |
| 2026-05-08 05:18 | 25.50179 | -18.86360 | 36989 ft | 483 kts | 49° |
| 2026-05-08 05:19 | 25.54544 | -18.80758 | 36989 ft | 483 kts | 49° |
| 2026-05-08 05:19 | 25.58909 | -18.75149 | 36989 ft | 483 kts | 49° |
| 2026-05-08 05:20 | 25.63309 | -18.69492 | 36989 ft | 483 kts | 49° |
| 2026-05-08 05:20 | 25.67670 | -18.63882 | 36989 ft | 483 kts | 49° |
| 2026-05-08 05:21 | 25.72032 | -18.58251 | 36989 ft | 483 kts | 49° |
| 2026-05-08 05:21 | 25.76399 | -18.52580 | 36989 ft | 483 kts | 49° |
| 2026-05-08 05:22 | 25.80734 | -18.46952 | 36989 ft | 483 kts | 49° |
| 2026-05-08 05:22 | 25.85081 | -18.41312 | 36989 ft | 483 kts | 49° |
| 2026-05-08 05:23 | 25.89446 | -18.35646 | 36989 ft | 483 kts | 49° |
| 2026-05-08 05:23 | 25.93792 | -18.29976 | 36989 ft | 483 kts | 50° |
| 2026-05-08 05:24 | 25.98125 | -18.24313 | 36989 ft | 483 kts | 50° |
| 2026-05-08 05:24 | 26.02485 | -18.18624 | 36989 ft | 483 kts | 50° |
| 2026-05-08 05:25 | 26.06823 | -18.12963 | 36989 ft | 483 kts | 50° |
| 2026-05-08 05:25 | 26.11172 | -18.07285 | 36989 ft | 483 kts | 49° |
| 2026-05-08 05:26 | 26.15544 | -18.01610 | 36989 ft | 483 kts | 49° |
| 2026-05-08 05:26 | 26.19901 | -17.95929 | 36989 ft | 483 kts | 49° |
| 2026-05-08 05:27 | 26.24219 | -17.90276 | 36989 ft | 483 kts | 50° |
| 2026-05-08 05:27 | 26.28577 | -17.84558 | 36989 ft | 483 kts | 50° |
| 2026-05-08 05:28 | 26.32887 | -17.78894 | 36989 ft | 483 kts | 50° |
| 2026-05-08 05:28 | 26.37224 | -17.73188 | 36989 ft | 483 kts | 50° |
| 2026-05-08 05:29 | 26.41551 | -17.67487 | 36989 ft | 483 kts | 50° |
| 2026-05-08 05:29 | 26.45904 | -17.61745 | 36989 ft | 483 kts | 50° |
| 2026-05-08 05:30 | 26.50217 | -17.56047 | 36989 ft | 483 kts | 50° |
| 2026-05-08 05:30 | 26.54550 | -17.50317 | 36989 ft | 483 kts | 50° |
| 2026-05-08 05:31 | 26.58864 | -17.44605 | 36989 ft | 483 kts | 50° |
| 2026-05-08 05:31 | 26.63166 | -17.38902 | 36989 ft | 483 kts | 50° |
| 2026-05-08 05:32 | 26.67503 | -17.33141 | 36989 ft | 483 kts | 50° |
| 2026-05-08 05:32 | 26.71791 | -17.27413 | 36989 ft | 483 kts | 50° |
| 2026-05-08 05:33 | 26.76090 | -17.21682 | 36989 ft | 483 kts | 50° |
| 2026-05-08 05:33 | 26.80430 | -17.15905 | 36989 ft | 483 kts | 50° |
| 2026-05-08 05:34 | 26.84742 | -17.10167 | 36989 ft | 483 kts | 50° |
| 2026-05-08 05:34 | 26.89024 | -17.04454 | 36989 ft | 483 kts | 50° |
| 2026-05-08 05:35 | 26.93318 | -16.98679 | 36989 ft | 483 kts | 50° |
| 2026-05-08 05:35 | 26.97615 | -16.92894 | 36989 ft | 483 kts | 50° |
| 2026-05-08 05:36 | 27.01896 | -16.87141 | 36989 ft | 483 kts | 50° |
| 2026-05-08 05:36 | 27.06195 | -16.81362 | 36989 ft | 483 kts | 50° |
| 2026-05-08 05:37 | 27.10506 | -16.75563 | 36989 ft | 483 kts | 50° |
| 2026-05-08 05:37 | 27.14813 | -16.69800 | 36989 ft | 484 kts | 50° |
| 2026-05-08 05:38 | 27.19106 | -16.64037 | 36989 ft | 484 kts | 50° |
| 2026-05-08 05:38 | 27.23395 | -16.58254 | 36989 ft | 484 kts | 50° |
| 2026-05-08 05:39 | 27.27679 | -16.52465 | 36989 ft | 484 kts | 50° |
| 2026-05-08 05:39 | 27.31960 | -16.46670 | 36989 ft | 484 kts | 50° |
| 2026-05-08 05:40 | 27.36244 | -16.40863 | 36989 ft | 484 kts | 50° |
| 2026-05-08 05:40 | 27.40518 | -16.35060 | 36989 ft | 484 kts | 50° |
| 2026-05-08 05:41 | 27.44796 | -16.29219 | 36989 ft | 484 kts | 51° |
| 2026-05-08 05:41 | 27.49040 | -16.23419 | 36989 ft | 484 kts | 50° |
| 2026-05-08 05:42 | 27.53312 | -16.17588 | 36989 ft | 484 kts | 50° |
| 2026-05-08 05:42 | 27.57598 | -16.11737 | 36989 ft | 484 kts | 50° |
| 2026-05-08 05:43 | 27.61839 | -16.05941 | 36989 ft | 484 kts | 50° |
| 2026-05-08 05:43 | 27.66108 | -16.00098 | 36989 ft | 484 kts | 50° |
| 2026-05-08 05:44 | 27.70377 | -15.94250 | 36989 ft | 484 kts | 50° |
| 2026-05-08 05:44 | 27.74621 | -15.88427 | 36989 ft | 484 kts | 50° |
| 2026-05-08 05:45 | 27.78891 | -15.82561 | 36989 ft | 484 kts | 50° |
| 2026-05-08 05:45 | 27.83128 | -15.76734 | 36989 ft | 484 kts | 50° |
| 2026-05-08 05:46 | 27.87381 | -15.70878 | 36989 ft | 484 kts | 50° |
| 2026-05-08 05:46 | 27.91657 | -15.64984 | 36989 ft | 484 kts | 50° |
| 2026-05-08 05:47 | 27.95894 | -15.59144 | 36989 ft | 484 kts | 50° |
| 2026-05-08 05:47 | 28.00138 | -15.53281 | 37255 ft | 484 kts | 50° |
| 2026-05-08 05:47 | 28.02273 | -15.50354 | 37466 ft | 483 kts | 49° |
| 2026-05-08 05:48 | 28.04502 | -15.47526 | 37647 ft | 482 kts | 46° |
| 2026-05-08 05:48 | 28.06868 | -15.44814 | 37801 ft | 482 kts | 43° |
| 2026-05-08 05:48 | 28.09342 | -15.42261 | 37942 ft | 482 kts | 40° |
| 2026-05-08 05:48 | 28.11901 | -15.39892 | 38075 ft | 483 kts | 37° |
| 2026-05-08 05:49 | 28.14617 | -15.37643 | 38205 ft | 483 kts | 34° |
| 2026-05-08 05:49 | 28.17383 | -15.35553 | 38337 ft | 483 kts | 33° |
| 2026-05-08 05:49 | 28.20184 | -15.33481 | 38474 ft | 483 kts | 33° |
| 2026-05-08 05:49 | 28.23019 | -15.31377 | 38606 ft | 483 kts | 33° |
| 2026-05-08 05:50 | 28.25814 | -15.29299 | 38730 ft | 483 kts | 33° |
| 2026-05-08 05:50 | 28.28589 | -15.27233 | 38849 ft | 483 kts | 33° |
| 2026-05-08 05:50 | 28.31380 | -15.25152 | 38963 ft | 483 kts | 33° |
| 2026-05-08 05:51 | 28.36992 | -15.20966 | 38983 ft | 483 kts | 33° |
| 2026-05-08 05:51 | 28.42575 | -15.16795 | 38987 ft | 483 kts | 33° |
| 2026-05-08 05:52 | 28.48156 | -15.12622 | 38988 ft | 483 kts | 33° |
| 2026-05-08 05:52 | 28.53777 | -15.08413 | 38988 ft | 483 kts | 33° |
| 2026-05-08 05:53 | 28.59335 | -15.04246 | 38988 ft | 483 kts | 33° |
| 2026-05-08 05:53 | 28.64918 | -15.00056 | 38988 ft | 483 kts | 33° |
| 2026-05-08 05:54 | 28.70535 | -14.95834 | 38988 ft | 483 kts | 33° |
| 2026-05-08 05:54 | 28.76108 | -14.91639 | 38988 ft | 483 kts | 33° |
| 2026-05-08 05:55 | 28.81679 | -14.87440 | 38988 ft | 483 kts | 33° |
| 2026-05-08 05:55 | 28.87293 | -14.83204 | 38988 ft | 483 kts | 33° |
| 2026-05-08 05:56 | 28.92847 | -14.79007 | 38988 ft | 483 kts | 33° |
| 2026-05-08 05:56 | 28.98436 | -14.74778 | 38988 ft | 483 kts | 33° |
| 2026-05-08 05:57 | 29.04021 | -14.70547 | 38988 ft | 483 kts | 33° |
| 2026-05-08 05:57 | 29.09592 | -14.66320 | 38988 ft | 483 kts | 33° |
| 2026-05-08 05:58 | 29.15198 | -14.62080 | 38988 ft | 483 kts | 33° |
| 2026-05-08 05:58 | 29.20757 | -14.57870 | 38988 ft | 483 kts | 33° |
| 2026-05-08 05:59 | 29.26351 | -14.53617 | 38988 ft | 483 kts | 33° |
| 2026-05-08 05:59 | 29.31913 | -14.49377 | 38988 ft | 483 kts | 33° |
| 2026-05-08 06:00 | 29.37506 | -14.45106 | 38988 ft | 483 kts | 33° |
| 2026-05-08 06:00 | 29.43049 | -14.40868 | 38988 ft | 483 kts | 33° |
| 2026-05-08 06:01 | 29.48642 | -14.36585 | 38988 ft | 483 kts | 33° |
| 2026-05-08 06:01 | 29.54177 | -14.32328 | 38988 ft | 483 kts | 34° |
| 2026-05-08 06:02 | 29.59740 | -14.28027 | 38988 ft | 483 kts | 34° |
| 2026-05-08 06:02 | 29.65325 | -14.23721 | 38988 ft | 483 kts | 34° |
| 2026-05-08 06:03 | 29.70855 | -14.19460 | 38988 ft | 483 kts | 34° |
| 2026-05-08 06:03 | 29.76448 | -14.15148 | 38988 ft | 483 kts | 34° |
| 2026-05-08 06:04 | 29.81994 | -14.10866 | 38988 ft | 483 kts | 34° |
| 2026-05-08 06:04 | 29.87575 | -14.06553 | 38988 ft | 483 kts | 34° |
| 2026-05-08 06:05 | 29.92861 | -14.02461 | 38988 ft | 483 kts | 34° |
| 2026-05-08 06:05 | 29.98442 | -13.98136 | 38988 ft | 483 kts | 34° |
| 2026-05-08 06:06 | 30.03982 | -13.93837 | 38988 ft | 483 kts | 34° |
| 2026-05-08 06:06 | 30.09533 | -13.89524 | 38988 ft | 483 kts | 34° |
| 2026-05-08 06:07 | 30.14989 | -13.85297 | 38988 ft | 483 kts | 33° |
| 2026-05-08 06:07 | 30.20558 | -13.80976 | 38988 ft | 483 kts | 34° |
| 2026-05-08 06:08 | 30.26127 | -13.76638 | 38988 ft | 483 kts | 34° |
| 2026-05-08 06:08 | 30.31665 | -13.72313 | 38988 ft | 483 kts | 34° |
| 2026-05-08 06:09 | 30.37200 | -13.67985 | 38988 ft | 483 kts | 34° |
| 2026-05-08 06:09 | 30.42740 | -13.63649 | 38988 ft | 483 kts | 34° |
| 2026-05-08 06:10 | 30.48304 | -13.59288 | 38988 ft | 483 kts | 34° |
| 2026-05-08 06:10 | 30.53831 | -13.54927 | 38988 ft | 483 kts | 34° |
| 2026-05-08 06:11 | 30.59374 | -13.50503 | 38988 ft | 483 kts | 34° |
| 2026-05-08 06:11 | 30.64871 | -13.46118 | 38988 ft | 483 kts | 34° |
| 2026-05-08 06:12 | 30.70407 | -13.41701 | 38988 ft | 483 kts | 34° |
| 2026-05-08 06:12 | 30.75920 | -13.37301 | 38988 ft | 483 kts | 34° |
| 2026-05-08 06:13 | 30.81427 | -13.32892 | 38988 ft | 483 kts | 34° |
| 2026-05-08 06:13 | 30.86960 | -13.28444 | 38988 ft | 483 kts | 34° |
| 2026-05-08 06:14 | 30.92480 | -13.24016 | 38988 ft | 483 kts | 34° |
| 2026-05-08 06:14 | 30.97980 | -13.19619 | 38988 ft | 483 kts | 34° |
| 2026-05-08 06:15 | 31.03518 | -13.15206 | 38988 ft | 483 kts | 34° |
| 2026-05-08 06:15 | 31.09047 | -13.10801 | 38988 ft | 483 kts | 34° |
| 2026-05-08 06:16 | 31.14568 | -13.06414 | 38988 ft | 483 kts | 34° |
| 2026-05-08 06:16 | 31.20108 | -13.02010 | 38988 ft | 483 kts | 34° |
| 2026-05-08 06:17 | 31.28428 | -12.95364 | 38988 ft | 483 kts | 34° |
| 2026-05-08 06:17 | 31.33950 | -12.90941 | 38988 ft | 483 kts | 34° |
| 2026-05-08 06:18 | 31.39470 | -12.86511 | 38988 ft | 483 kts | 34° |
| 2026-05-08 06:18 | 31.44996 | -12.82071 | 38988 ft | 483 kts | 34° |
| 2026-05-08 06:19 | 31.50492 | -12.77647 | 38988 ft | 483 kts | 34° |
| 2026-05-08 06:19 | 31.56019 | -12.73192 | 38988 ft | 483 kts | 34° |
| 2026-05-08 06:20 | 31.61538 | -12.68738 | 38988 ft | 483 kts | 34° |
| 2026-05-08 06:20 | 31.67061 | -12.64274 | 38988 ft | 483 kts | 34° |
| 2026-05-08 06:21 | 31.72579 | -12.59808 | 38988 ft | 483 kts | 34° |
| 2026-05-08 06:21 | 31.78105 | -12.55330 | 38988 ft | 483 kts | 34° |
| 2026-05-08 06:22 | 31.83593 | -12.50878 | 38988 ft | 483 kts | 34° |
| 2026-05-08 06:22 | 31.89121 | -12.46390 | 38988 ft | 483 kts | 34° |
| 2026-05-08 06:23 | 31.94635 | -12.41906 | 38987 ft | 483 kts | 34° |
| 2026-05-08 06:23 | 32.00137 | -12.37417 | 38987 ft | 483 kts | 34° |
| 2026-05-08 06:24 | 32.05644 | -12.32913 | 38988 ft | 483 kts | 35° |
| 2026-05-08 06:24 | 32.11144 | -12.28397 | 38988 ft | 483 kts | 35° |
| 2026-05-08 06:25 | 32.16657 | -12.23906 | 38988 ft | 483 kts | 34° |
| 2026-05-08 06:25 | 32.22163 | -12.19417 | 38988 ft | 483 kts | 34° |
| 2026-05-08 06:26 | 32.27670 | -12.14913 | 38988 ft | 483 kts | 34° |
| 2026-05-08 06:26 | 32.33163 | -12.10412 | 38988 ft | 483 kts | 34° |
| 2026-05-08 06:27 | 32.38688 | -12.05876 | 38988 ft | 483 kts | 34° |
| 2026-05-08 06:27 | 32.44186 | -12.01356 | 38988 ft | 483 kts | 34° |
| 2026-05-08 06:28 | 32.49693 | -11.96822 | 38988 ft | 484 kts | 34° |
| 2026-05-08 06:28 | 32.55204 | -11.92277 | 38988 ft | 484 kts | 34° |
| 2026-05-08 06:29 | 32.60700 | -11.87737 | 38988 ft | 484 kts | 34° |
| 2026-05-08 06:29 | 32.66178 | -11.83207 | 38988 ft | 484 kts | 34° |
| 2026-05-08 06:30 | 32.71688 | -11.78642 | 38988 ft | 484 kts | 34° |
| 2026-05-08 06:30 | 32.77160 | -11.74103 | 38988 ft | 484 kts | 34° |
| 2026-05-08 06:31 | 32.82679 | -11.69517 | 38988 ft | 484 kts | 34° |
| 2026-05-08 06:31 | 32.88169 | -11.64950 | 38988 ft | 484 kts | 34° |
| 2026-05-08 06:32 | 32.93647 | -11.60385 | 38988 ft | 484 kts | 34° |
| 2026-05-08 06:32 | 32.99130 | -11.55811 | 38987 ft | 484 kts | 34° |
| 2026-05-08 06:33 | 33.04609 | -11.51234 | 38987 ft | 484 kts | 34° |
| 2026-05-08 06:33 | 33.10115 | -11.46632 | 38987 ft | 484 kts | 34° |
| 2026-05-08 06:34 | 33.15593 | -11.42065 | 38988 ft | 484 kts | 34° |
| 2026-05-08 06:34 | 33.21077 | -11.37448 | 38988 ft | 484 kts | 35° |
| 2026-05-08 06:35 | 33.26535 | -11.32801 | 38988 ft | 484 kts | 36° |
| 2026-05-08 06:35 | 33.31982 | -11.28139 | 38988 ft | 484 kts | 36° |
| 2026-05-08 06:36 | 33.37436 | -11.23484 | 38988 ft | 484 kts | 36° |
| 2026-05-08 06:36 | 33.42895 | -11.18830 | 38988 ft | 484 kts | 35° |
| 2026-05-08 06:37 | 33.48343 | -11.14182 | 38988 ft | 484 kts | 35° |
| 2026-05-08 06:37 | 33.53802 | -11.09517 | 38988 ft | 484 kts | 35° |
| 2026-05-08 06:38 | 33.59255 | -11.04853 | 38988 ft | 484 kts | 35° |
| 2026-05-08 06:38 | 33.64703 | -11.00183 | 38988 ft | 484 kts | 35° |
| 2026-05-08 06:39 | 33.70152 | -10.95506 | 38988 ft | 484 kts | 35° |
| 2026-05-08 06:39 | 33.75633 | -10.90795 | 38988 ft | 484 kts | 35° |
| 2026-05-08 06:40 | 33.81076 | -10.86108 | 38988 ft | 484 kts | 35° |
| 2026-05-08 06:40 | 33.86499 | -10.81432 | 38988 ft | 484 kts | 35° |
| 2026-05-08 06:41 | 33.91960 | -10.76714 | 38988 ft | 484 kts | 35° |
| 2026-05-08 06:41 | 33.97401 | -10.72007 | 38988 ft | 484 kts | 35° |
| 2026-05-08 06:42 | 34.02848 | -10.67286 | 38988 ft | 484 kts | 35° |
| 2026-05-08 06:42 | 34.08285 | -10.62567 | 38987 ft | 484 kts | 35° |
| 2026-05-08 06:43 | 34.13718 | -10.57859 | 38988 ft | 484 kts | 35° |
| 2026-05-08 06:43 | 34.19188 | -10.53120 | 38988 ft | 484 kts | 35° |
| 2026-05-08 06:44 | 34.24619 | -10.48393 | 38988 ft | 484 kts | 35° |
| 2026-05-08 06:44 | 34.30041 | -10.43659 | 38988 ft | 484 kts | 36° |
| 2026-05-08 06:45 | 34.35477 | -10.38903 | 38988 ft | 484 kts | 36° |
| 2026-05-08 06:45 | 34.40891 | -10.34157 | 38988 ft | 484 kts | 36° |
| 2026-05-08 06:46 | 34.46312 | -10.29371 | 38988 ft | 484 kts | 36° |
| 2026-05-08 06:46 | 34.51755 | -10.24576 | 38988 ft | 484 kts | 36° |
| 2026-05-08 06:47 | 34.57158 | -10.19828 | 38988 ft | 484 kts | 36° |
| 2026-05-08 06:47 | 34.62605 | -10.15026 | 38988 ft | 484 kts | 36° |
| 2026-05-08 06:48 | 34.68018 | -10.10245 | 38988 ft | 484 kts | 36° |
| 2026-05-08 06:48 | 34.73442 | -10.05461 | 38988 ft | 484 kts | 36° |
| 2026-05-08 06:49 | 34.78875 | -10.00670 | 38988 ft | 484 kts | 36° |
| 2026-05-08 06:49 | 34.84276 | -9.95903 | 38988 ft | 484 kts | 36° |
| 2026-05-08 06:50 | 34.89710 | -9.91099 | 38988 ft | 484 kts | 36° |
| 2026-05-08 06:50 | 34.95132 | -9.86297 | 38988 ft | 484 kts | 36° |
| 2026-05-08 06:51 | 35.00548 | -9.81494 | 38988 ft | 484 kts | 36° |
| 2026-05-08 06:51 | 35.05991 | -9.76659 | 38988 ft | 484 kts | 36° |
| 2026-05-08 06:52 | 35.11409 | -9.71840 | 38988 ft | 484 kts | 36° |
| 2026-05-08 06:52 | 35.16825 | -9.67041 | 38988 ft | 484 kts | 36° |
| 2026-05-08 06:53 | 35.22238 | -9.62223 | 38988 ft | 484 kts | 36° |
| 2026-05-08 06:53 | 35.27660 | -9.57379 | 38988 ft | 484 kts | 36° |
| 2026-05-08 06:54 | 35.33061 | -9.52542 | 38988 ft | 484 kts | 36° |
| 2026-05-08 06:54 | 35.38476 | -9.47683 | 38988 ft | 484 kts | 36° |
| 2026-05-08 06:55 | 35.43883 | -9.42822 | 38988 ft | 484 kts | 36° |
| 2026-05-08 06:55 | 35.49292 | -9.37952 | 38988 ft | 484 kts | 36° |
| 2026-05-08 06:56 | 35.54684 | -9.33082 | 38988 ft | 484 kts | 37° |
| 2026-05-08 06:56 | 35.60068 | -9.28189 | 38988 ft | 484 kts | 36° |
| 2026-05-08 06:57 | 35.65478 | -9.23280 | 38988 ft | 483 kts | 36° |
| 2026-05-08 06:57 | 35.70874 | -9.18389 | 38988 ft | 483 kts | 36° |
| 2026-05-08 06:58 | 35.76266 | -9.13498 | 38988 ft | 483 kts | 36° |
| 2026-05-08 06:58 | 35.81659 | -9.08601 | 38988 ft | 483 kts | 36° |
| 2026-05-08 06:59 | 35.87016 | -9.03731 | 38988 ft | 483 kts | 36° |
| 2026-05-08 06:59 | 35.92410 | -8.98757 | 38988 ft | 483 kts | 38° |
| 2026-05-08 07:00 | 35.97430 | -8.93314 | 38987 ft | 483 kts | 44° |
| 2026-05-08 07:00 | 36.01987 | -8.87268 | 38988 ft | 483 kts | 49° |
| 2026-05-08 07:01 | 36.06347 | -8.80986 | 38987 ft | 483 kts | 49° |
| 2026-05-08 07:01 | 36.10704 | -8.74693 | 38987 ft | 483 kts | 49° |
| 2026-05-08 07:02 | 36.15071 | -8.68436 | 38988 ft | 483 kts | 49° |
| 2026-05-08 07:02 | 36.19470 | -8.62115 | 38988 ft | 483 kts | 49° |
| 2026-05-08 07:03 | 36.23833 | -8.55818 | 38988 ft | 483 kts | 49° |
| 2026-05-08 07:03 | 36.28187 | -8.49518 | 38988 ft | 483 kts | 49° |
| 2026-05-08 07:04 | 36.32522 | -8.43234 | 38988 ft | 483 kts | 49° |
| 2026-05-08 07:04 | 36.36876 | -8.36910 | 38988 ft | 483 kts | 49° |
| 2026-05-08 07:05 | 36.41229 | -8.30560 | 38988 ft | 483 kts | 50° |
| 2026-05-08 07:05 | 36.45562 | -8.24223 | 38988 ft | 483 kts | 50° |
| 2026-05-08 07:06 | 36.49905 | -8.17887 | 38988 ft | 483 kts | 50° |
| 2026-05-08 07:06 | 36.54226 | -8.11558 | 38988 ft | 483 kts | 50° |
| 2026-05-08 07:07 | 36.58540 | -8.05194 | 38988 ft | 483 kts | 50° |
| 2026-05-08 07:07 | 36.62859 | -7.98824 | 38988 ft | 483 kts | 50° |
| 2026-05-08 07:08 | 36.67204 | -7.92416 | 38988 ft | 483 kts | 50° |
| 2026-05-08 07:08 | 36.71522 | -7.86040 | 38988 ft | 483 kts | 50° |
| 2026-05-08 07:09 | 36.75838 | -7.79658 | 38988 ft | 483 kts | 50° |
| 2026-05-08 07:09 | 36.80160 | -7.73254 | 38988 ft | 483 kts | 50° |
| 2026-05-08 07:10 | 36.84469 | -7.66859 | 38988 ft | 483 kts | 50° |
| 2026-05-08 07:10 | 36.88763 | -7.60474 | 38987 ft | 483 kts | 50° |
| 2026-05-08 07:11 | 36.93074 | -7.54056 | 38987 ft | 483 kts | 50° |
| 2026-05-08 07:11 | 36.97386 | -7.47629 | 38987 ft | 483 kts | 50° |
| 2026-05-08 07:12 | 37.01686 | -7.41207 | 38987 ft | 483 kts | 50° |
| 2026-05-08 07:12 | 37.05985 | -7.34778 | 38987 ft | 483 kts | 50° |
| 2026-05-08 07:13 | 37.10301 | -7.28343 | 38988 ft | 483 kts | 50° |
| 2026-05-08 07:13 | 37.14608 | -7.21972 | 38988 ft | 483 kts | 50° |
| 2026-05-08 07:14 | 37.18932 | -7.15527 | 38988 ft | 483 kts | 50° |
| 2026-05-08 07:14 | 37.23243 | -7.09058 | 38988 ft | 483 kts | 50° |
| 2026-05-08 07:15 | 37.27527 | -7.02628 | 38988 ft | 483 kts | 50° |
| 2026-05-08 07:15 | 37.31841 | -6.96151 | 38988 ft | 483 kts | 50° |
| 2026-05-08 07:16 | 37.36128 | -6.89705 | 38988 ft | 483 kts | 50° |
| 2026-05-08 07:16 | 37.40429 | -6.83226 | 38988 ft | 483 kts | 50° |
| 2026-05-08 07:17 | 37.44702 | -6.76776 | 38988 ft | 483 kts | 50° |
| 2026-05-08 07:17 | 37.48991 | -6.70288 | 38988 ft | 483 kts | 50° |
| 2026-05-08 07:18 | 37.53264 | -6.63815 | 38988 ft | 483 kts | 50° |
| 2026-05-08 07:18 | 37.57566 | -6.57283 | 38988 ft | 483 kts | 50° |
| 2026-05-08 07:19 | 37.61838 | -6.50785 | 38988 ft | 483 kts | 50° |
| 2026-05-08 07:19 | 37.66095 | -6.44297 | 38988 ft | 483 kts | 50° |
| 2026-05-08 07:20 | 37.70380 | -6.37755 | 38988 ft | 483 kts | 50° |
| 2026-05-08 07:20 | 37.74635 | -6.31235 | 38988 ft | 483 kts | 51° |
| 2026-05-08 07:21 | 37.78909 | -6.24663 | 38988 ft | 483 kts | 51° |
| 2026-05-08 07:21 | 37.83171 | -6.18126 | 38988 ft | 483 kts | 50° |
| 2026-05-08 07:22 | 37.87410 | -6.11610 | 38988 ft | 483 kts | 51° |
| 2026-05-08 07:22 | 37.91819 | -6.05201 | 38988 ft | 483 kts | 46° |
| 2026-05-08 07:23 | 37.96673 | -5.99392 | 38988 ft | 483 kts | 40° |
| 2026-05-08 07:23 | 38.02012 | -5.94226 | 38988 ft | 483 kts | 34° |
| 2026-05-08 07:24 | 38.07663 | -5.89622 | 38988 ft | 483 kts | 32° |
| 2026-05-08 07:24 | 38.13330 | -5.85124 | 38988 ft | 483 kts | 32° |
| 2026-05-08 07:25 | 38.19014 | -5.80595 | 38988 ft | 483 kts | 32° |
| 2026-05-08 07:26 | 38.27513 | -5.73761 | 38988 ft | 483 kts | 32° |
| 2026-05-08 07:26 | 38.33185 | -5.69180 | 38988 ft | 483 kts | 32° |
| 2026-05-08 07:27 | 38.38858 | -5.64589 | 38988 ft | 483 kts | 32° |
| 2026-05-08 07:27 | 38.44519 | -5.60000 | 38988 ft | 483 kts | 32° |
| 2026-05-08 07:28 | 38.50181 | -5.55404 | 38988 ft | 483 kts | 32° |
| 2026-05-08 07:28 | 38.55851 | -5.50795 | 38988 ft | 484 kts | 32° |
| 2026-05-08 07:29 | 38.61486 | -5.46203 | 38674 ft | 484 kts | 32° |
| 2026-05-08 07:29 | 38.64327 | -5.43900 | 38247 ft | 481 kts | 32° |
| 2026-05-08 07:29 | 38.67123 | -5.41638 | 37690 ft | 479 kts | 32° |
| 2026-05-08 07:29 | 38.69952 | -5.39351 | 37057 ft | 480 kts | 32° |
| 2026-05-08 07:30 | 38.72757 | -5.37081 | 36370 ft | 481 kts | 32° |
| 2026-05-08 07:30 | 38.75592 | -5.34786 | 35665 ft | 481 kts | 32° |
| 2026-05-08 07:30 | 38.78395 | -5.32504 | 34975 ft | 482 kts | 32° |
| 2026-05-08 07:30 | 38.81193 | -5.30220 | 34282 ft | 482 kts | 32° |
| 2026-05-08 07:31 | 38.84012 | -5.27923 | 33582 ft | 483 kts | 32° |
| 2026-05-08 07:31 | 38.86829 | -5.25634 | 32876 ft | 483 kts | 32° |
| 2026-05-08 07:31 | 38.89691 | -5.23309 | 32146 ft | 484 kts | 32° |
| 2026-05-08 07:31 | 38.92485 | -5.21036 | 31424 ft | 484 kts | 32° |
| 2026-05-08 07:32 | 38.95332 | -5.18691 | 30674 ft | 485 kts | 34° |
| 2026-05-08 07:32 | 38.97987 | -5.16054 | 29907 ft | 485 kts | 41° |
| 2026-05-08 07:32 | 39.00383 | -5.13017 | 29122 ft | 486 kts | 48° |
| 2026-05-08 07:32 | 39.02469 | -5.09644 | 28315 ft | 487 kts | 55° |
| 2026-05-08 07:33 | 39.04303 | -5.06020 | 27579 ft | 485 kts | 58° |
| 2026-05-08 07:33 | 39.06058 | -5.02353 | 27122 ft | 477 kts | 58° |
| 2026-05-08 07:33 | 39.07768 | -4.98745 | 26579 ft | 473 kts | 58° |
| 2026-05-08 07:33 | 39.09461 | -4.95186 | 26029 ft | 468 kts | 58° |
| 2026-05-08 07:34 | 39.11164 | -4.91636 | 25458 ft | 464 kts | 58° |
| 2026-05-08 07:34 | 39.12871 | -4.88112 | 24897 ft | 460 kts | 58° |
| 2026-05-08 07:34 | 39.14545 | -4.84645 | 24390 ft | 455 kts | 58° |
| 2026-05-08 07:34 | 39.16198 | -4.81202 | 23902 ft | 450 kts | 58° |
| 2026-05-08 07:35 | 39.17860 | -4.77863 | 23427 ft | 445 kts | 55° |
| 2026-05-08 07:35 | 39.19685 | -4.74650 | 22956 ft | 440 kts | 51° |
| 2026-05-08 07:35 | 39.21645 | -4.71660 | 22496 ft | 435 kts | 47° |
| 2026-05-08 07:35 | 39.23710 | -4.68881 | 22054 ft | 430 kts | 45° |
| 2026-05-08 07:36 | 39.25812 | -4.66168 | 21609 ft | 426 kts | 44° |
| 2026-05-08 07:36 | 39.27895 | -4.63497 | 21158 ft | 422 kts | 44° |
| 2026-05-08 07:36 | 39.29953 | -4.60852 | 20705 ft | 418 kts | 44° |
| 2026-05-08 07:36 | 39.32013 | -4.58198 | 20250 ft | 415 kts | 45° |
| 2026-05-08 07:37 | 39.34020 | -4.55604 | 19802 ft | 412 kts | 45° |
| 2026-05-08 07:37 | 39.36029 | -4.53001 | 19352 ft | 408 kts | 45° |
| 2026-05-08 07:37 | 39.38021 | -4.50416 | 18903 ft | 405 kts | 45° |
| 2026-05-08 07:37 | 39.40008 | -4.47835 | 18454 ft | 402 kts | 45° |
| 2026-05-08 07:38 | 39.41949 | -4.45313 | 18014 ft | 400 kts | 45° |
| 2026-05-08 07:38 | 39.43910 | -4.42762 | 17568 ft | 397 kts | 45° |
| 2026-05-08 07:38 | 39.45847 | -4.40240 | 17126 ft | 394 kts | 45° |
| 2026-05-08 07:38 | 39.47746 | -4.37765 | 16689 ft | 392 kts | 45° |
| 2026-05-08 07:39 | 39.49671 | -4.35252 | 16249 ft | 389 kts | 45° |
| 2026-05-08 07:39 | 39.51553 | -4.32785 | 16075 ft | 385 kts | 45° |
| 2026-05-08 07:39 | 39.53416 | -4.30334 | 15921 ft | 384 kts | 45° |
| 2026-05-08 07:39 | 39.55280 | -4.27881 | 15771 ft | 383 kts | 45° |
| 2026-05-08 07:40 | 39.57152 | -4.25420 | 15631 ft | 382 kts | 45° |
| 2026-05-08 07:40 | 39.59013 | -4.22978 | 15504 ft | 381 kts | 45° |
| 2026-05-08 07:40 | 39.60878 | -4.20531 | 15389 ft | 380 kts | 45° |
| 2026-05-08 07:40 | 39.62729 | -4.18105 | 15288 ft | 380 kts | 45° |
| 2026-05-08 07:41 | 39.64580 | -4.15674 | 15201 ft | 379 kts | 45° |
| 2026-05-08 07:41 | 39.66417 | -4.13258 | 15122 ft | 379 kts | 45° |
| 2026-05-08 07:41 | 39.68258 | -4.10834 | 15050 ft | 378 kts | 45° |
| 2026-05-08 07:41 | 39.70102 | -4.08402 | 14781 ft | 379 kts | 45° |
| 2026-05-08 07:42 | 39.71935 | -4.05981 | 14384 ft | 376 kts | 45° |
| 2026-05-08 07:42 | 39.73773 | -4.03555 | 13997 ft | 373 kts | 45° |
| 2026-05-08 07:42 | 39.75561 | -4.01196 | 13624 ft | 370 kts | 45° |
| 2026-05-08 07:42 | 39.77377 | -3.98797 | 13246 ft | 368 kts | 45° |
| 2026-05-08 07:43 | 39.79139 | -3.96467 | 12914 ft | 362 kts | 45° |
| 2026-05-08 07:43 | 39.80895 | -3.94143 | 12595 ft | 355 kts | 45° |
| 2026-05-08 07:43 | 39.82599 | -3.91884 | 12286 ft | 348 kts | 45° |
| 2026-05-08 07:43 | 39.84278 | -3.89655 | 11986 ft | 341 kts | 45° |
| 2026-05-08 07:44 | 39.85908 | -3.87493 | 11705 ft | 334 kts | 45° |
| 2026-05-08 07:44 | 39.87513 | -3.85365 | 11438 ft | 327 kts | 45° |
| 2026-05-08 07:44 | 39.89081 | -3.83282 | 11169 ft | 321 kts | 45° |
| 2026-05-08 07:44 | 39.90639 | -3.81211 | 10848 ft | 317 kts | 45° |
| 2026-05-08 07:45 | 39.92162 | -3.79185 | 10575 ft | 311 kts | 45° |
| 2026-05-08 07:45 | 39.93662 | -3.77186 | 10314 ft | 305 kts | 45° |
| 2026-05-08 07:45 | 39.95118 | -3.75241 | 10023 ft | 301 kts | 45° |
| 2026-05-08 07:45 | 39.96576 | -3.73297 | 9736 ft | 297 kts | 45° |
| 2026-05-08 07:46 | 39.98004 | -3.71393 | 9458 ft | 293 kts | 45° |
| 2026-05-08 07:46 | 39.99425 | -3.69498 | 9183 ft | 289 kts | 45° |
| 2026-05-08 07:46 | 40.00818 | -3.67638 | 8916 ft | 285 kts | 45° |
| 2026-05-08 07:46 | 40.02190 | -3.65803 | 8655 ft | 282 kts | 45° |
| 2026-05-08 07:47 | 40.03548 | -3.63986 | 8399 ft | 278 kts | 45° |
| 2026-05-08 07:47 | 40.04878 | -3.62206 | 8150 ft | 274 kts | 45° |
| 2026-05-08 07:47 | 40.06197 | -3.60436 | 7904 ft | 270 kts | 45° |
| 2026-05-08 07:47 | 40.07494 | -3.58697 | 7664 ft | 267 kts | 45° |
| 2026-05-08 07:48 | 40.08783 | -3.56970 | 7427 ft | 263 kts | 45° |
| 2026-05-08 07:48 | 40.10051 | -3.55270 | 7194 ft | 260 kts | 45° |
| 2026-05-08 07:48 | 40.11315 | -3.53588 | 6965 ft | 256 kts | 45° |
| 2026-05-08 07:48 | 40.12553 | -3.51942 | 6741 ft | 253 kts | 45° |
| 2026-05-08 07:49 | 40.13760 | -3.50331 | 6524 ft | 249 kts | 45° |
| 2026-05-08 07:49 | 40.14964 | -3.48717 | 6297 ft | 246 kts | 45° |
| 2026-05-08 07:49 | 40.16146 | -3.47128 | 6044 ft | 244 kts | 45° |
| 2026-05-08 07:49 | 40.17340 | -3.45582 | 5916 ft | 238 kts | 43° |
| 2026-05-08 07:50 | 40.18551 | -3.44139 | 5644 ft | 238 kts | 41° |
| 2026-05-08 07:50 | 40.19780 | -3.42698 | 5387 ft | 237 kts | 41° |
| 2026-05-08 07:50 | 40.21052 | -3.41353 | 5132 ft | 236 kts | 34° |
| 2026-05-08 07:50 | 40.22458 | -3.40217 | 4878 ft | 235 kts | 29° |
| 2026-05-08 07:51 | 40.23883 | -3.39182 | 4612 ft | 232 kts | 28° |
| 2026-05-08 07:51 | 40.25329 | -3.38410 | 4236 ft | 225 kts | 9° |
| 2026-05-08 07:51 | 40.26860 | -3.38397 | 4039 ft | 212 kts | 353° |
| 2026-05-08 07:51 | 40.28275 | -3.38655 | 4026 ft | 201 kts | 351° |
| 2026-05-08 07:52 | 40.29577 | -3.39058 | 4011 ft | 188 kts | 339° |
| 2026-05-08 07:52 | 40.30723 | -3.39760 | 4031 ft | 171 kts | 329° |
| 2026-05-08 07:52 | 40.31693 | -3.40578 | 4021 ft | 161 kts | 325° |
| 2026-05-08 07:52 | 40.32581 | -3.41409 | 4020 ft | 155 kts | 323° |
| 2026-05-08 07:53 | 40.33440 | -3.42253 | 4022 ft | 153 kts | 322° |
| 2026-05-08 07:53 | 40.34284 | -3.43104 | 4024 ft | 153 kts | 322° |
| 2026-05-08 07:53 | 40.35122 | -3.43959 | 4024 ft | 153 kts | 321° |
| 2026-05-08 07:53 | 40.35972 | -3.44830 | 4025 ft | 153 kts | 321° |
| 2026-05-08 07:54 | 40.36806 | -3.45686 | 4025 ft | 153 kts | 321° |
| 2026-05-08 07:54 | 40.37646 | -3.46546 | 4025 ft | 153 kts | 321° |
| 2026-05-08 07:54 | 40.38495 | -3.47415 | 3932 ft | 154 kts | 321° |
| 2026-05-08 07:54 | 40.39332 | -3.48270 | 3738 ft | 153 kts | 322° |
| 2026-05-08 07:55 | 40.40167 | -3.49123 | 3544 ft | 152 kts | 322° |
| 2026-05-08 07:55 | 40.40995 | -3.49968 | 3348 ft | 152 kts | 322° |
| 2026-05-08 07:55 | 40.41827 | -3.50817 | 3147 ft | 151 kts | 322° |
| 2026-05-08 07:55 | 40.42657 | -3.51663 | 2943 ft | 151 kts | 322° |
| 2026-05-08 07:56 | 40.43491 | -3.52513 | 2737 ft | 150 kts | 322° |
| 2026-05-08 07:56 | 40.44323 | -3.53361 | 2532 ft | 150 kts | 322° |
| 2026-05-08 07:56 | 40.45142 | -3.54197 | 2316 ft | 150 kts | 322° |
| 2026-05-08 07:56 | 40.45955 | -3.55027 | 2118 ft | 146 kts | 322° |
| 2026-05-08 07:57 | 40.46731 | -3.55816 | 2012 ft | 130 kts | 321° |
| 2026-05-08 07:57 | 40.47304 | -3.56393 | 2012 ft | 78 kts | 322° |
| 2026-05-08 07:57 | 40.47573 | -3.56671 | 2012 ft | 21 kts | 322° |
| 2026-05-08 07:57 | 40.47647 | -3.56741 | 2012 ft | 15 kts | 325° |
| 2026-05-08 07:58 | 40.47759 | -3.56806 | 2012 ft | 18 kts | 344° |
| 2026-05-08 07:58 | 40.47885 | -3.56851 | 2012 ft | 18 kts | 345° |
| 2026-05-08 07:58 | 40.48013 | -3.56895 | 2012 ft | 19 kts | 345° |
| 2026-05-08 07:58 | 40.48144 | -3.56942 | 2012 ft | 19 kts | 343° |
| 2026-05-08 07:59 | 40.48274 | -3.56990 | 2012 ft | 19 kts | 349° |
| 2026-05-08 07:59 | 40.48402 | -3.56997 | 2012 ft | 18 kts | 0° |
| 2026-05-08 07:59 | 40.48528 | -3.56997 | 2012 ft | 17 kts | 359° |
| 2026-05-08 07:59 | 40.48656 | -3.56999 | 2012 ft | 18 kts | 359° |
| 2026-05-08 08:00 | 40.48784 | -3.57001 | 2012 ft | 16 kts | 359° |
| 2026-05-08 08:00 | 40.48857 | -3.56958 | 2012 ft | 11 kts | 67° |
| 2026-05-08 08:00 | 40.48861 | -3.56856 | 2012 ft | 11 kts | 89° |
| 2026-05-08 08:00 | 40.48859 | -3.56746 | 2012 ft | 14 kts | 93° |
| 2026-05-08 08:01 | 40.48855 | -3.56579 | 2012 ft | 18 kts | 89° |
| 2026-05-08 08:01 | 40.48886 | -3.56508 | 2012 ft | 7 kts | 0° |
| 2026-05-08 08:01 | 40.48933 | -3.56517 | 2012 ft | 7 kts | 351° |
| 2026-05-08 08:01 | 40.48985 | -3.56528 | 2012 ft | 8 kts | 351° |
| 2026-05-08 08:02 | 40.49046 | -3.56540 | 2012 ft | 9 kts | 351° |
| 2026-05-08 08:02 | 40.49110 | -3.56552 | 2012 ft | 9 kts | 353° |
| 2026-05-08 08:02 | 40.49180 | -3.56561 | 2012 ft | 10 kts | 354° |
| 2026-05-08 08:02 | 40.49244 | -3.56560 | 2012 ft | 8 kts | 8° |
| 2026-05-08 08:03 | 40.49302 | -3.56549 | 2012 ft | 8 kts | 4° |
| 2026-05-08 08:03 | 40.49362 | -3.56545 | 2012 ft | 8 kts | 1° |
| 2026-05-08 08:03 | 40.49425 | -3.56543 | 2012 ft | 9 kts | 360° |
| 2026-05-08 08:03 | 40.49495 | -3.56543 | 2012 ft | 10 kts | 360° |
| 2026-05-08 08:04 | 40.49549 | -3.56551 | 2012 ft | 4 kts | 332° |
| 2026-05-08 08:04 | 40.49559 | -3.56568 | 2012 ft | 1 kts | 288° |
| 2026-05-08 08:04 | 40.49561 | -3.56586 | 2012 ft | 0 kts | 272° |
| 2026-05-08 08:04 | 40.49561 | -3.56616 | 2012 ft | 4 kts | 269° |
| 2026-05-08 08:05 | 40.49561 | -3.56644 | 2012 ft | 2 kts | 269° |
| 2026-05-08 08:05 | 40.49561 | -3.56652 | 2012 ft | 0 kts | 269° |
| 2026-05-08 08:05 | 40.49561 | -3.56644 | 2012 ft | 0 kts | 269° |